• Join FlightAware (Why Join?)
  • Login
  • US Flag 
11:38PM EDT


 

Airport Tracker/Info


-or-


 

Live Flight TrackerFlight Track Log ✈ SIA21 ✈ 04-Nov-2013 ✈ KEWR - WSSS / SIN

Flight Track Log - Related Links

Times and Time Zones

All times are in EST time to prevent confusion due to time zone crossing. See the SIA21 flight status page for this flight to view local times or setup timezone preferences in your user account.

Time Position Orientation Groundspeed Altitude Reporting Facility
EST Latitude Longitude Course Direction KTS MPH feet Rate Location/Type
11:09PM 40.7290 -74.1380 32° Northeast 172 198 900  Level FlightAware
11:10PM 40.7520 -74.1090 44° Northeast 182 209 2,000 1,680 Climbing FlightAware ADS-B
11:10PM 40.7558 -74.1055 35° Northeast 185 213 2,100 1,620 Climbing FlightAware ADS-B
11:10PM 40.7601 -74.1027 26° Northeast 187 215 2,300 1,200 Climbing FlightAware ADS-B
11:10PM 40.7674 -74.0987 23° Northeast 191 220 2,400 960 Climbing FlightAware ADS-B
11:10PM 40.7802 -74.0912 24° Northeast 203 234 2,700 780 Climbing FlightAware ADS-B
11:10PM 40.7866 -74.0875 24° Northeast 211 243 2,700 660 Level FlightAware ADS-B
11:11PM 40.8046 -74.0760 26° Northeast 232 267 3,000 720 Climbing FlightAware ADS-B
11:11PM 40.8096 -74.0720 31° Northeast 239 275 3,000  Level FlightAware ADS-B
11:11PM 40.8123 -74.0693 37° Northeast 242 278 3,000  Level FlightAware ADS-B
11:11PM 40.8150 -74.0662 41° Northeast 246 283 3,000 840 Level FlightAware ADS-B
11:11PM 40.8180 -74.0623 45° Northeast 250 288 3,100 1,080 Climbing FlightAware ADS-B
11:11PM 40.8237 -74.0536 49° Northeast 259 298 3,200 1,200 Climbing FlightAware ADS-B
11:11PM 40.8367 -74.0310 53° Northeast 274 315 3,600 1,860 Climbing FlightAware ADS-B
11:12PM 40.8501 -74.0078 53° Northeast 274 315 4,300 2,340 Climbing FlightAware ADS-B
11:12PM 40.8629 -73.9864 52° Northeast 281 323 4,900 2,160 Climbing FlightAware ADS-B
11:12PM 40.8765 -73.9638 51° Northeast 285 328 5,500 2,160 Climbing FlightAware ADS-B
11:12PM 40.8898 -73.9422 51° Northeast 290 334 6,100 2,040 Climbing FlightAware ADS-B
11:13PM 40.9037 -73.9197 51° Northeast 295 339 6,600 2,100 Climbing FlightAware ADS-B
11:13PM 40.9171 -73.8980 51° Northeast 293 337 7,200 2,040 Climbing FlightAware ADS-B
11:13PM 40.9314 -73.8749 51° Northeast 295 339 7,700 1,860 Climbing FlightAware ADS-B
11:14PM 40.9770 -73.8000 51° Northeast 300 345 9,400 1,620 Climbing FlightAware
11:14PM 40.9980 -73.7670 50° Northeast 312 359 9,800 900 Climbing FlightAware
11:15PM 41.0450 -73.6910 51° Northeast 347 399 10,500 780 Climbing FlightAware
11:16PM 41.1050 -73.5940 51° Northeast 384 442 11,200 1,200 Climbing FlightAware
11:17PM 41.1550 -73.5110 51° Northeast 393 452 12,500 1,680 Climbing FlightAware
11:18PM 41.2091 -73.4225 51° Northeast 402 463 14,000 1,560 Climbing FlightAware ADS-B (KSNC)
11:19PM 41.2668 -73.3273 51° Northeast 406 467 15,100 1,440 Climbing FlightAware ADS-B (KSNC)
11:19PM 41.3145 -73.2489 51° Northeast 413 475 16,000 1,260 Climbing FlightAware ADS-B (KSNC)
11:20PM 41.3559 -73.1804 51° Northeast 420 483 16,700 1,200 Climbing FlightAware ADS-B (KSNC)
11:20PM 41.3910 -73.1173 53° Northeast 432 497 17,300 1,200 Climbing FlightAware ADS-B (KSNC)
11:21PM 41.4359 -73.0156 60° Northeast 439 505 18,200 1,140 Climbing FlightAware ADS-B (KSNC)
11:22PM 41.4767 -72.9226 60° Northeast 448 516 18,900 1,200 Climbing FlightAware ADS-B (KSNC)
11:22PM 41.5122 -72.8420 60° Northeast 452 520 19,700 1,500 Climbing FlightAware ADS-B (KSNC)
11:23PM 41.5441 -72.7693 60° Northeast 450 518 20,500 1,200 Climbing FlightAware ADS-B (KSNC)
11:23PM 41.5885 -72.6684 60° Northeast 459 528 21,200 960 Climbing FlightAware ADS-B (KSNC)
11:24PM 41.6283 -72.5995 52° Northeast 461 531 21,700 900 Climbing FlightAware ADS-B (KSNC)
11:24PM 41.6698 -72.5330 50° Northeast 469 540 22,100 840 Climbing FlightAware ADS-B (KSNC)
11:25PM 41.7113 -72.4649 51° Northeast 471 542 22,600 1,080 Climbing FlightAware ADS-B (KSNC)
11:25PM 41.7533 -72.3960 51° Northeast 474 545 23,200 1,020 Climbing FlightAware ADS-B (KSNC)
11:26PM 41.7995 -72.3203 51° Northeast 478 550 23,700 900 Climbing FlightAware ADS-B (KSNC)
11:27PM 41.8557 -72.2278 51° Northeast 484 557 24,300 840 Climbing FlightAware ADS-B (KSNC)
11:27PM 41.9081 -72.1415 51° Northeast 488 562 24,800 840 Climbing FlightAware ADS-B (KSNC)
11:28PM 41.9646 -72.0481 51° Northeast 492 566 25,400 780 Climbing FlightAware ADS-B (KSNC)
11:28PM 42.0079 -71.9759 51° Northeast 491 565 25,700 540 Climbing FlightAware ADS-B
11:29PM 42.0228 -71.9516 50° Northeast 499 574 25,800 900 Climbing FlightAware ADS-B (KSNC)
11:29PM 42.0550 -71.8982 51° Northeast 500 575 26,200 900 Climbing FlightAware ADS-B (KSNC)
11:29PM 42.0699 -71.8729 52° Northeast 501 577 26,300 660 Climbing FlightAware ADS-B (KSNC)
11:30PM 42.1183 -71.7922 51° Northeast 504 580 26,700 780 Climbing FlightAware ADS-B
11:30PM 42.1692 -71.7076 51° Northeast 502 578 27,200 900 Climbing FlightAware ADS-B
11:31PM 42.2154 -71.6298 51° Northeast 503 579 27,700 1,140 Climbing FlightAware ADS-B
11:31PM 42.2733 -71.5323 51° Northeast 500 575 28,600 1,200 Climbing FlightAware ADS-B
11:32PM 42.2878 -71.5078 51° Northeast 500 575 28,700 780 Climbing FlightAware ADS-B
11:32PM 42.3044 -71.4797 51° Northeast 505 581 28,900 1,140 Climbing FlightAware ADS-B (KSNC)
11:32PM 42.3321 -71.4330 51° Northeast 500 575 29,300 1,260 Climbing FlightAware ADS-B
11:32PM 42.3375 -71.4242 51° Northeast 505 581 29,500 1,080 Climbing FlightAware ADS-B (KBOS)
11:33PM 42.4040 -71.3116 51° Northeast 500 575 30,200 1,020 Climbing FlightAware ADS-B
11:33PM 42.4482 -71.2364 51° Northeast 501 577 30,700 900 Climbing FlightAware ADS-B
11:34PM 42.4905 -71.1641 51° Northeast 508 585 31,100 600 Climbing FlightAware ADS-B
11:34PM 42.5345 -71.0890 52° Northeast 508 585 31,300 720 Climbing FlightAware ADS-B
11:35PM 42.5499 -71.0627 52° Northeast 512 589 31,600 1,320 Climbing FlightAware ADS-B
11:35PM 42.5673 -71.0328 52° Northeast 510 587 31,800 1,140 Climbing FlightAware ADS-B
11:35PM 42.5798 -71.0113 52° Northeast 508 585 32,000 1,380 Climbing FlightAware ADS-B
11:35PM 42.5920 -70.9904 52° Northeast 501 577 32,200 1,320 Climbing FlightAware ADS-B
11:36PM 42.6375 -70.9122 52° Northeast 499 574 32,900 900 Climbing FlightAware ADS-B
11:36PM 42.6654 -70.8641 52° Northeast 498 573 33,000 180 Climbing FlightAware ADS-B
11:36PM 42.6793 -70.8401 52° Northeast 501 577 33,000  Level FlightAware ADS-B
11:36PM 42.6945 -70.8142 51° Northeast 503 579 33,000  Level FlightAware ADS-B
11:36PM 42.7091 -70.7887 52° Northeast 503 579 33,000  Level FlightAware ADS-B
11:37PM 42.7384 -70.7382 52° Northeast 503 579 33,000  Level FlightAware ADS-B
11:37PM 42.7824 -70.6620 52° Northeast 507 583 33,000  Level FlightAware ADS-B (KBOS)
11:38PM 42.8226 -70.5922 52° Northeast 508 585 33,000  Level FlightAware ADS-B (KBOS)
11:38PM 42.8698 -70.5102 52° Northeast 511 588 33,000  Level FlightAware ADS-B (KBOS)
11:39PM 42.9138 -70.4332 52° Northeast 512 589 33,000  Level FlightAware ADS-B (KBOS)
11:39PM 42.9580 -70.3560 52° Northeast 510 587 33,000  Level FlightAware ADS-B (KBOS)
11:40PM 43.0091 -70.2659 52° Northeast 511 588 33,000  Level FlightAware ADS-B (KBOS)
11:40PM 43.0240 -70.2400 52° Northeast 507 583 33,000  Level FlightAware ADS-B
11:40PM 43.0483 -70.1971 52° Northeast 506 582 33,000  Level FlightAware ADS-B
11:41PM 43.0962 -70.1127 52° Northeast 509 586 33,000  Level FlightAware ADS-B (KBOS)
11:41PM 43.1408 -70.0337 52° Northeast 511 588 33,000  Level FlightAware ADS-B (KBOS)
11:42PM 43.1489 -70.0194 52° Northeast 505 581 33,000  Level FlightAware ADS-B
11:42PM 43.1749 -69.9729 52° Northeast 505 581 33,000  Level FlightAware ADS-B
11:42PM 43.2275 -69.8795 52° Northeast 509 586 33,000  Level FlightAware ADS-B (KBOS)
11:43PM 43.2715 -69.8012 52° Northeast 509 586 33,000  Level FlightAware ADS-B (KBOS)
11:44PM 43.3288 -69.6988 52° Northeast 510 587 33,000  Level FlightAware ADS-B (KBOS)
11:44PM 43.3746 -69.6166 53° Northeast 509 586 33,000  Level FlightAware ADS-B (KBOS)
11:45PM 43.4299 -69.5169 53° Northeast 510 587 33,000  Level FlightAware ADS-B
11:45PM 43.4762 -69.4335 53° Northeast 511 588 33,000  Level FlightAware ADS-B (KBOS)
11:46PM 43.5294 -69.3373 53° Northeast 513 590 33,000  Level FlightAware ADS-B
11:47PM 43.5728 -69.2581 53° Northeast 513 590 33,000  Level FlightAware ADS-B
11:47PM 43.6248 -69.1635 53° Northeast 511 588 33,000  Level FlightAware ADS-B (KBOS)
11:48PM 43.6691 -69.0824 53° Northeast 509 586 33,000  Level FlightAware ADS-B (KBOS)
11:48PM 43.7098 -69.0077 53° Northeast 509 586 33,000  Level FlightAware ADS-B (KBOS)
11:49PM 43.7536 -68.9273 53° Northeast 508 585 33,000  Level FlightAware ADS-B (KBOS)
11:49PM 43.7979 -68.8458 53° Northeast 509 586 33,000  Level FlightAware ADS-B (KBOS)
11:50PM 43.8411 -68.7662 53° Northeast 510 587 33,000  Level FlightAware ADS-B
11:50PM 43.8824 -68.6895 53° Northeast 500 575 33,000  Level FlightAware ADS-B
11:51PM 43.9113 -68.6357 53° Northeast 504 580 33,000  Level FlightAware ADS-B (KBOS)
11:51PM 43.9254 -68.6094 53° Northeast 499 574 33,000  Level FlightAware ADS-B
11:51PM 43.9810 -68.5060 53° Northeast 499 574 33,000  Level FlightAware ADS-B
11:52PM 44.0101 -68.4517 53° Northeast 499 574 33,000  Level FlightAware ADS-B
11:52PM 44.0517 -68.3738 53° Northeast 499 574 33,000  Level FlightAware ADS-B
11:53PM 44.1001 -68.2829 53° Northeast 504 580 33,000  Level FlightAware ADS-B (KBGR)
11:53PM 44.1430 -68.2010 54° Northeast 502 578 33,000  Level FlightAware
11:53PM 44.1501 -68.1888 51° Northeast 503 579 33,000  Level FlightAware ADS-B (KBGR)
11:54PM 44.2018 -68.0909 54° Northeast 498 573 33,000  Level FlightAware ADS-B
11:55PM 44.1501 -68.1888 234° Southwest 502 578 33,000  Level FlightAware ADS-B (KBGR)
11:55PM 44.3230 -67.8610 54° Northeast 502 578 33,000  Level FlightAware
11:57PM 44.3228 -67.8609 168° South 502 578 33,000  Level FlightAware ADS-B (CYSG)
11:57PM 44.3642 -67.7819 54° Northeast 501 577 33,000  Level FlightAware ADS-B (KBGR)
11:58PM 44.5380 -67.4480 54° Northeast 501 577 33,000  Level FlightAware
11:58PM 44.4729 -67.5729 234° Southwest 502 578 33,000  Level FlightAware ADS-B (CYSG)
11:59PM 44.6090 -67.3090 54° Northeast 500 575 33,000  Level FlightAware
12:00AM 44.6520 -67.2250 54° Northeast 499 574 33,000  Level FlightAware
12:00AM 44.6667 -67.1969 54° Northeast 499 574 33,000  Level FlightAware ADS-B (KBGR)
12:01AM 44.7005 -67.1308 54° Northeast 498 573 33,000  Level FlightAware ADS-B (CYSG)
12:01AM 44.7915 -66.9521 54° Northeast 499 574 33,000  Level FlightAware ADS-B (CYSG)
12:02AM 44.8640 -66.8080 55° Northeast 501 577 33,000  Level FlightAware
12:02AM 44.8137 -66.9083 235° Southwest 502 578 33,000  Level FlightAware ADS-B (CYSG)
12:03AM 44.9380 -66.6610 55° Northeast 502 578 33,000  Level FlightAware
12:03AM 44.9720 -66.5940 54° Northeast 505 581 33,000  Level FlightAware
12:04AM 45.0480 -66.4420 55° Northeast 503 579 33,000  Level FlightAware
12:05AM 45.1150 -66.3070 55° Northeast 501 577 33,000  Level FlightAware
12:06AM 45.1840 -66.1680 55° Northeast 498 573 33,000  Level FlightAware
12:07AM 45.2610 -66.0120 55° Northeast 500 575 33,000  Level FlightAware
12:08AM 45.2980 -65.9360 55° Northeast 501 577 33,000  Level FlightAware
12:08AM 45.3660 -65.7970 55° Northeast 500 575 33,000  Level FlightAware
12:09AM 45.4470 -65.6300 55° Northeast 501 577 33,000  Level FlightAware
12:10AM 45.5140 -65.4920 55° Northeast 503 579 33,000  Level FlightAware
12:11AM 45.5630 -65.3910 55° Northeast 504 580 33,000  Level FlightAware
12:11AM 45.6050 -65.3030 56° Northeast 507 583 33,000  Level FlightAware
12:13AM 45.6900 -65.1240 56° Northeast 508 585 33,000  Level FlightAware
12:13AM 45.7330 -65.0350 55° Northeast 507 583 33,000  Level FlightAware
12:14AM 45.8020 -64.8880 56° Northeast 505 581 33,000  Level FlightAware
12:15AM 45.8590 -64.7680 56° Northeast 505 581 33,000  Level FlightAware
12:15AM 45.9070 -64.6660 56° Northeast 505 581 33,000  Level FlightAware
12:16AM 45.9890 -64.4890 56° Northeast 503 579 33,000  Level FlightAware
12:17AM 46.0560 -64.3450 56° Northeast 503 579 33,000  Level FlightAware
12:18AM 46.1260 -64.1940 56° Northeast 505 581 33,000  Level FlightAware
12:19AM 46.1930 -64.0470 57° Northeast 503 579 33,000  Level FlightAware
12:20AM 46.2380 -63.9500 56° Northeast 500 575 33,000  Level FlightAware
12:20AM 46.3040 -63.8050 57° Northeast 501 577 33,000  Level FlightAware
12:21AM 46.3690 -63.6610 57° Northeast 501 577 33,000  Level FlightAware
12:22AM 46.4250 -63.5380 57° Northeast 500 575 33,000  Level FlightAware
12:23AM 46.4960 -63.3800 57° Northeast 499 574 33,000  Level FlightAware
12:24AM 46.5490 -63.2590 57° Northeast 498 573 33,000  Level FlightAware
12:25AM 46.6300 -63.0780 57° Northeast 497 572 33,000  Level FlightAware
12:26AM 46.7000 -62.9180 57° Northeast 499 574 33,000  Level FlightAware
12:26AM 46.7410 -62.8260 57° Northeast 500 575 33,000  Level FlightAware
12:27AM 46.8050 -62.6780 58° Northeast 501 577 33,000  Level FlightAware
12:28AM 46.8370 -62.6050 57° Northeast 501 577 33,000  Level FlightAware
12:29AM 46.9150 -62.4250 58° Northeast 501 577 33,000  Level FlightAware
12:29AM 46.9510 -62.3430 57° Northeast 499 574 33,000  Level FlightAware
12:30AM 47.0220 -62.1770 58° Northeast 495 570 33,000  Level FlightAware
12:31AM 47.0840 -62.0320 58° Northeast 494 568 33,000  Level FlightAware
12:32AM 47.1450 -61.8880 58° Northeast 494 568 33,000  Level FlightAware
12:33AM 47.2130 -61.7270 58° Northeast 494 568 33,000  Level FlightAware
12:34AM 47.3000 -61.5190 58° Northeast 496 571 33,000  Level FlightAware
12:35AM 47.3740 -61.3420 58° Northeast 497 572 33,000  Level FlightAware
12:36AM 47.4390 -61.1850 58° Northeast 496 571 33,000  Level FlightAware
12:37AM 47.5080 -61.0180 59° Northeast 497 572 33,000  Level FlightAware
12:37AM 47.5410 -60.9360 59° Northeast 497 572 33,000  Level FlightAware
12:38AM 47.6080 -60.7710 59° Northeast 493 567 33,000  Level FlightAware
12:39AM 47.6470 -60.6770 58° Northeast 487 560 33,000  Level FlightAware
12:39AM 47.6790 -60.5970 59° Northeast 483 556 33,000  Level FlightAware
12:40AM 47.7200 -60.4950 59° Northeast 479 551 33,000  Level FlightAware
12:41AM 47.7920 -60.3170 59° Northeast 479 551 33,000  Level FlightAware
12:42AM 47.8510 -60.1680 59° Northeast 476 548 33,000  Level FlightAware
12:42AM 47.8980 -60.0500 59° Northeast 473 544 33,000  Level FlightAware
12:44AM 47.9710 -59.8640 60° Northeast 478 550 33,000  Level FlightAware
12:44AM 48.0220 -59.7340 60° Northeast 475 547 33,000  Level FlightAware
12:45AM 48.0840 -59.5750 60° Northeast 481 554 33,000  Level FlightAware
12:46AM 48.1410 -59.4310 59° Northeast 484 557 33,000  Level FlightAware
12:47AM 48.1880 -59.3060 61° Northeast 486 559 33,000  Level FlightAware
12:47AM 48.2190 -59.2250 60° Northeast 484 557 33,000  Level FlightAware
12:48AM 48.2600 -59.1190 60° Northeast 480 552 33,000  Level FlightAware
12:49AM 48.3320 -58.9290 60° Northeast 482 555 33,000  Level FlightAware
12:50AM 48.3880 -58.7820 60° Northeast 482 555 33,000  Level FlightAware
12:51AM 48.4480 -58.6220 60° Northeast 482 555 33,000  Level FlightAware
12:51AM 48.4800 -58.5380 60° Northeast 484 557 33,000  Level FlightAware
12:52AM 48.5240 -58.4190 61° Northeast 488 562 33,000  Level FlightAware
12:53AM 48.5900 -58.2370 61° Northeast 493 567 33,000  Level FlightAware
12:53AM 48.6270 -58.1300 62° Northeast 493 567 33,000  Level FlightAware
12:54AM 48.6620 -58.0250 63° Northeast 492 566 33,000  Level FlightAware
12:55AM 48.6990 -57.9160 63° Northeast 494 568 33,000  Level FlightAware
12:55AM 48.7400 -57.7950 63° Northeast 500 575 33,000  Level FlightAware
12:56AM 48.7620 -57.7300 63° Northeast 496 571 33,000  Level FlightAware
12:56AM 48.8040 -57.6070 63° Northeast 497 572 33,000  Level FlightAware
12:57AM 48.8670 -57.4190 63° Northeast 501 577 33,000  Level FlightAware
12:58AM 48.9030 -57.3100 63° Northeast 502 578 33,000  Level FlightAware
12:59AM 48.9600 -57.1370 63° Northeast 500 575 33,000  Level FlightAware
12:59AM 48.9870 -57.0570 63° Northeast 499 574 33,000  Level FlightAware
01:00AM 49.0580 -56.8400 63° Northeast 496 571 33,000  Level FlightAware
01:01AM 49.1130 -56.6690 64° Northeast 498 573 33,000  Level FlightAware
01:02AM 49.1700 -56.4920 64° Northeast 501 577 33,000  Level FlightAware
01:03AM 49.2260 -56.3190 64° Northeast 506 582 33,000  Level FlightAware
01:04AM 49.2570 -56.2200 64° Northeast 505 581 33,000  Level FlightAware
01:04AM 49.2930 -56.1090 64° Northeast 505 581 33,000  Level FlightAware
01:05AM 49.3540 -55.9130 64° Northeast 509 586 33,000  Level FlightAware
01:06AM 49.3900 -55.8000 64° Northeast 511 588 33,000  Level FlightAware
01:07AM 49.4410 -55.6350 65° Northeast 522 601 33,000  Level FlightAware
01:07AM 49.4870 -55.4880 64° Northeast 518 596 33,000  Level FlightAware
01:08AM 49.5230 -55.3700 65° Northeast 517 595 33,000  Level FlightAware
01:09AM 49.5640 -55.2360 65° Northeast 520 598 33,000  Level FlightAware
01:09AM 49.5900 -55.1520 64° Northeast 524 603 33,000  Level FlightAware
01:10AM 49.6560 -54.9330 65° Northeast 526 605 33,000  Level FlightAware
01:11AM 49.7170 -54.7310 65° Northeast 527 606 33,000  Level FlightAware
01:12AM 49.7650 -54.5690 65° Northeast 527 606 33,000  Level FlightAware
01:13AM 49.8230 -54.3750 65° Northeast 528 608 33,000  Level FlightAware
01:13AM 49.8530 -54.2720 66° East 530 610 33,000  Level FlightAware
01:14AM 49.8870 -54.1540 66° East 530 610 33,000  Level FlightAware
01:15AM 49.9290 -54.0120 65° Northeast 531 611 33,000  Level FlightAware
01:15AM 49.9770 -53.8470 66° East 533 613 33,000  Level FlightAware
01:16AM 50.0060 -53.7450 66° East 532 612 33,000  Level FlightAware
01:16AM 50.0400 -53.6260 66° East 533 613 33,000  Level FlightAware
01:17AM 50.0810 -53.4840 66° East 534 615 33,000  Level FlightAware
01:18AM 50.1100 -53.3790 67° East 534 615 33,000  Level FlightAware
01:19AM 50.1740 -53.1520 66° East 536 617 33,000  Level FlightAware
01:20AM 50.2250 -52.9720 66° East 537 618 33,000  Level FlightAware
01:20AM 50.2490 -52.8850 67° East 538 619 33,000  Level FlightAware
01:21AM 50.2840 -52.7570 67° East 538 619 33,000  Level FlightAware
01:21AM 50.3120 -52.6560 67° East 540 621 33,000  Level FlightAware
01:22AM 50.3480 -52.5250 67° East 541 623 33,000  Level FlightAware
01:22AM 50.3790 -52.4090 67° East 540 621 33,000  Level FlightAware
01:23AM 50.4380 -52.1900 67° East 541 623 33,000  Level FlightAware
01:24AM 50.4660 -52.0880 67° East 540 621 33,000  Level FlightAware
01:24AM 50.4900 -51.9980 67° East 538 619 33,000  Level FlightAware
01:25AM 50.5320 -51.8390 67° East 538 619 33,000  Level FlightAware
01:26AM 50.5720 -51.6920 67° East 538 619 33,000  Level FlightAware
01:27AM 50.6210 -51.5080 67° East 538 619 33,000  Level FlightAware
01:27AM 50.6410 -51.4350 67° East 538 619 33,000  Level FlightAware
01:28AM 50.6920 -51.2470 67° East 538 619 33,000  Level FlightAware
01:29AM 50.7210 -51.1360 68° East 538 619 33,000  Level FlightAware
01:30AM 50.7710 -50.9520 67° East 538 619 33,000  Level FlightAware
01:30AM 50.8010 -50.8410 67° East 538 619 33,000  Level FlightAware
01:31AM 50.8210 -50.7670 67° East 538 619 33,000  Level FlightAware
01:32AM 50.8600 -50.6190 67° East 538 619 33,000  Level FlightAware
01:32AM 50.9000 -50.4710 67° East 538 619 33,000  Level FlightAware
01:33AM 50.9200 -50.3960 67° East 538 619 33,000  Level FlightAware
01:33AM 50.9490 -50.2850 67° East 538 619 33,000  Level FlightAware
01:34AM 50.9790 -50.1740 67° East 538 619 33,000  Level FlightAware
01:34AM 50.9990 -50.1000 67° East 538 619 33,000  Level FlightAware
01:35AM 51.0833 -49.5333 67° East 550 633 33,000  Level Gander Center
01:37AM 51.1945 -49.3065 52° Northeast  Level FlightAware Approximate
01:44AM 51.8010 -48.0332 52° Northeast  Level FlightAware Approximate
01:45AM 51.8865 -47.8485 53° Northeast  Level FlightAware Approximate
01:46AM 51.9717 -47.6632 53° Northeast  Level FlightAware Approximate
01:47AM 52.0566 -47.4771 53° Northeast  Level FlightAware Approximate
01:48AM 52.1413 -47.2903 54° Northeast  Level FlightAware Approximate
01:49AM 52.2256 -47.1028 54° Northeast  Level FlightAware Approximate
01:50AM 52.3096 -46.9146 54° Northeast  Level FlightAware Approximate
01:51AM 52.3934 -46.7256 54° Northeast  Level FlightAware Approximate
01:52AM 52.4768 -46.5360 54° Northeast  Level FlightAware Approximate
01:53AM 52.5599 -46.3456 54° Northeast  Level FlightAware Approximate
01:54AM 52.6427 -46.1545 54° Northeast  Level FlightAware Approximate
01:55AM 52.7253 -45.9627 55° Northeast  Level FlightAware Approximate
01:56AM 52.8075 -45.7702 55° Northeast  Level FlightAware Approximate
01:57AM 52.8894 -45.5769 55° Northeast  Level FlightAware Approximate
01:58AM 52.9709 -45.3829 55° Northeast  Level FlightAware Approximate
01:59AM 53.0522 -45.1882 55° Northeast  Level FlightAware Approximate
02:00AM 53.1331 -44.9927 55° Northeast  Level FlightAware Approximate
02:01AM 53.2137 -44.7965 55° Northeast  Level FlightAware Approximate
02:02AM 53.2940 -44.5995 56° Northeast  Level FlightAware Approximate
02:03AM 53.3740 -44.4019 56° Northeast  Level FlightAware Approximate
02:04AM 53.4536 -44.2034 56° Northeast  Level FlightAware Approximate
02:05AM 53.5329 -44.0043 56° Northeast  Level FlightAware Approximate
02:06AM 53.6119 -43.8044 56° Northeast  Level FlightAware Approximate
02:07AM 53.6906 -43.6037 56° Northeast  Level FlightAware Approximate
02:08AM 53.7689 -43.4023 57° Northeast  Level FlightAware Approximate
02:09AM 53.8468 -43.2001 57° Northeast  Level FlightAware Approximate
02:10AM 53.9244 -42.9972 57° Northeast  Level FlightAware Approximate
02:11AM 54.0017 -42.7936 57° Northeast  Level FlightAware Approximate
02:12AM 54.0787 -42.5891 57° Northeast  Level FlightAware Approximate
02:13AM 54.1553 -42.3840 57° Northeast  Level FlightAware Approximate
02:14AM 54.2315 -42.1780 58° Northeast  Level FlightAware Approximate
02:15AM 54.3074 -41.9713 58° Northeast  Level FlightAware Approximate
02:16AM 54.3829 -41.7639 58° Northeast  Level FlightAware Approximate
02:17AM 54.4581 -41.5556 58° Northeast  Level FlightAware Approximate
02:18AM 54.5329 -41.3466 58° Northeast  Level FlightAware Approximate
02:19AM 54.6074 -41.1369 58° Northeast  Level FlightAware Approximate
02:20AM 54.6814 -40.9264 59° Northeast  Level FlightAware Approximate
02:21AM 54.7552 -40.7151 59° Northeast  Level FlightAware Approximate
02:22AM 54.8285 -40.5030 59° Northeast  Level FlightAware Approximate
02:23AM 54.9015 -40.2902 59° Northeast  Level FlightAware Approximate
02:24AM 54.9741 -40.0766 59° Northeast  Level FlightAware Approximate
02:25AM 55.0493 -39.8649 57° Northeast  Level FlightAware Approximate
02:26AM 55.1255 -39.6544 58° Northeast  Level FlightAware Approximate
02:27AM 55.2014 -39.4430 58° Northeast  Level FlightAware Approximate
02:28AM 55.2769 -39.2309 58° Northeast  Level FlightAware Approximate
02:29AM 55.3520 -39.0180 58° Northeast  Level FlightAware Approximate
02:30AM 55.4267 -38.8041 59° Northeast  Level FlightAware Approximate
02:31AM 55.5000 -38.5883 59° Northeast  Level FlightAware Approximate
02:32AM 55.5729 -38.3718 59° Northeast  Level FlightAware Approximate
02:33AM 55.6454 -38.1545 59° Northeast  Level FlightAware Approximate
02:34AM 55.7175 -37.9364 60° Northeast  Level FlightAware Approximate
02:35AM 55.7893 -37.7174 60° Northeast  Level FlightAware Approximate
02:36AM 55.8623 -37.4994 59° Northeast  Level FlightAware Approximate
02:37AM 55.9360 -37.2817 59° Northeast  Level FlightAware Approximate
02:38AM 56.0092 -37.0631 59° Northeast  Level FlightAware Approximate
02:39AM 56.0821 -36.8437 59° Northeast  Level FlightAware Approximate
02:40AM 56.1546 -36.6235 59° Northeast  Level FlightAware Approximate
02:41AM 56.2265 -36.4022 60° Northeast  Level FlightAware Approximate
02:42AM 56.2967 -36.1788 60° Northeast  Level FlightAware Approximate
02:43AM 56.3666 -35.9545 61° Northeast  Level FlightAware Approximate
02:44AM 56.4360 -35.7295 61° Northeast  Level FlightAware Approximate
02:45AM 56.5050 -35.5036 61° Northeast  Level FlightAware Approximate
02:46AM 56.5736 -35.2769 61° Northeast  Level FlightAware Approximate
02:47AM 56.6417 -35.0493 61° Northeast  Level FlightAware Approximate
02:48AM 56.7095 -34.8210 62° Northeast  Level FlightAware Approximate
02:49AM 56.7768 -34.5918 62° Northeast  Level FlightAware Approximate
02:50AM 56.8438 -34.3618 62° Northeast  Level FlightAware Approximate
02:51AM 56.9102 -34.1310 62° Northeast  Level FlightAware Approximate
02:52AM 56.9764 -33.8994 62° Northeast  Level FlightAware Approximate
02:53AM 57.0424 -33.6673 62° Northeast  Level FlightAware Approximate
02:54AM 57.1079 -33.4344 63° Northeast  Level FlightAware Approximate
02:55AM 57.1730 -33.2006 63° Northeast  Level FlightAware Approximate
02:56AM 57.2377 -32.9660 63° Northeast  Level FlightAware Approximate
02:57AM 57.3020 -32.7306 63° Northeast  Level FlightAware Approximate
02:58AM 57.3658 -32.4944 63° Northeast  Level FlightAware Approximate
02:59AM 57.4292 -32.2573 64° Northeast  Level FlightAware Approximate
03:00AM 57.4921 -32.0195 64° Northeast  Level FlightAware Approximate
03:01AM 57.5546 -31.7808 64° Northeast  Level FlightAware Approximate
03:02AM 57.6166 -31.5413 64° Northeast  Level FlightAware Approximate
03:03AM 57.6781 -31.3009 64° Northeast  Level FlightAware Approximate
03:04AM 57.7392 -31.0598 65° Northeast  Level FlightAware Approximate
03:05AM 57.7999 -30.8178 65° Northeast  Level FlightAware Approximate
03:06AM 57.8601 -30.5751 65° Northeast  Level FlightAware Approximate
03:07AM 57.9198 -30.3315 65° Northeast  Level FlightAware Approximate
03:08AM 57.9790 -30.0871 65° Northeast  Level FlightAware Approximate
03:09AM 58.0394 -29.8433 65° Northeast  Level FlightAware Approximate
03:10AM 58.1002 -29.5994 65° Northeast  Level FlightAware Approximate
03:11AM 58.1605 -29.3547 65° Northeast  Level FlightAware Approximate
03:12AM 58.2203 -29.1092 65° Northeast  Level FlightAware Approximate
03:13AM 58.2796 -28.8628 65° Northeast  Level FlightAware Approximate
03:14AM 58.3385 -28.6157 66° East  Level FlightAware Approximate
03:15AM 58.3969 -28.3676 66° East  Level FlightAware Approximate
03:16AM 58.4548 -28.1188 66° East  Level FlightAware Approximate
03:17AM 58.5123 -27.8692 66° East  Level FlightAware Approximate
03:18AM 58.5692 -27.6187 66° East  Level FlightAware Approximate
03:19AM 58.6257 -27.3675 67° East  Level FlightAware Approximate
03:20AM 58.6817 -27.1154 67° East  Level FlightAware Approximate
03:21AM 58.7371 -26.8625 67° East  Level FlightAware Approximate
03:22AM 58.7921 -26.6088 67° East  Level FlightAware Approximate
03:23AM 58.8466 -26.3543 67° East  Level FlightAware Approximate
03:24AM 58.9006 -26.0990 68° East  Level FlightAware Approximate
03:25AM 58.9540 -25.8429 68° East  Level FlightAware Approximate
03:26AM 59.0070 -25.5860 68° East  Level FlightAware Approximate
03:27AM 59.0595 -25.3284 68° East  Level FlightAware Approximate
03:28AM 59.1114 -25.0699 69° East  Level FlightAware Approximate
03:29AM 59.1628 -24.8107 69° East  Level FlightAware Approximate
03:30AM 59.2138 -24.5507 69° East  Level FlightAware Approximate
03:31AM 59.2641 -24.2899 69° East  Level FlightAware Approximate
03:32AM 59.3140 -24.0284 69° East  Level FlightAware Approximate
03:33AM 59.3634 -23.7660 70° East  Level FlightAware Approximate
03:34AM 59.4122 -23.5030 70° East  Level FlightAware Approximate
03:35AM 59.4604 -23.2391 70° East  Level FlightAware Approximate
03:36AM 59.5082 -22.9746 70° East  Level FlightAware Approximate
03:37AM 59.5554 -22.7092 71° East  Level FlightAware Approximate
03:38AM 59.6021 -22.4432 71° East  Level FlightAware Approximate
03:39AM 59.6482 -22.1764 71° East  Level FlightAware Approximate
03:40AM 59.6938 -21.9088 71° East  Level FlightAware Approximate
03:41AM 59.7389 -21.6406 71° East  Level FlightAware Approximate
03:41AM 54.9260 -13.4760 72° East 612 704 35,000  Level FlightAware
03:42AM 59.7834 -21.3716 72° East  Level FlightAware Approximate
03:42AM 54.9060 -13.3340 104° East 609 701 35,000  Level FlightAware
03:42AM 54.8790 -13.1460 104° East 604 695 35,000  Level FlightAware
03:43AM 54.8520 -12.9610 104° East 601 692 35,000  Level FlightAware
03:44AM 54.8060 -12.6560 105° East 604 695 35,000  Level FlightAware
03:45AM 54.7820 -12.4990 105° East 601 692 35,000  Level FlightAware
03:45AM 54.7500 -12.2900 105° East 601 692 35,000  Level FlightAware
03:46AM 54.7100 -12.0290 105° East 602 693 35,000  Level FlightAware
03:47AM 54.7030 -11.9870 106° East 603 694 35,000  Level FlightAware
03:48AM 54.6540 -11.6740 105° East 606 697 35,000  Level FlightAware
03:48AM 54.6210 -11.4690 105° East 608 700 35,000  Level FlightAware
03:49AM 54.5990 -11.3320 105° East 606 697 35,000  Level FlightAware
03:50AM 54.5510 -11.0400 106° East 600 690 35,000  Level FlightAware
03:50AM 54.5240 -10.8780 106° East 601 692 35,000  Level FlightAware
03:51AM 54.4790 -10.6140 106° East 601 692 35,000  Level FlightAware
03:52AM 54.4310 -10.3350 106° East 604 695 35,000  Level FlightAware
03:53AM 54.3880 -10.0870 106° East 606 697 35,000  Level FlightAware
03:54AM 54.3430 -9.8320 107° East 613 705 35,000  Level FlightAware
03:55AM 54.2967 -9.5708 107° East 611 703 35,000  Level FlightAware ADS-B
03:56AM 54.2461 -9.2922 107° East 608 700 35,000  Level FlightAware ADS-B
03:57AM 54.2212 -9.1561 107° East 608 700 35,000  Level FlightAware ADS-B
03:57AM 54.1931 -9.0043 107° East 610 702 35,000  Level FlightAware ADS-B
03:58AM 54.1578 -8.8114 107° East 486 559 35,000  Level FlightAware UK
03:58AM 54.1495 -8.7704 107° East 608 700 35,000  Level FlightAware ADS-B
03:59AM 54.1060 -8.5382 107° East 482 555 35,000  Level FlightAware UK
03:59AM 54.0800 -8.4014 108° East 484 557 35,000  Level FlightAware UK
04:00AM 54.0704 -8.3534 108° East 608 700 35,000  Level FlightAware ADS-B
04:00AM 54.0272 -8.1297 108° East 484 557 35,000  Level FlightAware UK
04:01AM 54.0210 -8.0980 108° East 603 694 35,000  Level FlightAware
04:01AM 53.9799 -7.8884 108° East 607 699 35,000  Level FlightAware ADS-B
04:02AM 53.9475 -7.7259 108° East 484 557 35,000  Level FlightAware UK
04:02AM 53.9467 -7.7214 108° East 609 701 35,000  Level FlightAware ADS-B
04:03AM 53.9190 -7.5820 109° East 609 701 35,000  Level FlightAware
04:03AM 53.8759 -7.3683 109° East 614 707 35,000  Level FlightAware ADS-B
04:04AM 53.8393 -7.1870 109° East 613 705 35,000  Level FlightAware ADS-B
04:05AM 53.8090 -7.0401 109° East 610 702 35,000  Level FlightAware ADS-B (EIDW / DUB)
04:05AM 53.7622 -6.8129 109° East 610 702 35,000  Level FlightAware ADS-B (EIDW / DUB)
04:06AM 53.7248 -6.6338 109° East 610 702 35,000  Level FlightAware ADS-B (EIDW / DUB)
04:07AM 53.6901 -6.4691 110° East 611 703 35,000  Level FlightAware ADS-B
04:07AM 53.6480 -6.2690 109° East 611 703 35,000  Level FlightAware
04:08AM 53.6287 -6.1819 110° East 612 704 35,000  Level FlightAware ADS-B
04:08AM 53.5976 -6.0366 110° East 611 703 35,000  Level FlightAware ADS-B (EIDW / DUB)
04:09AM 53.5669 -5.8954 110° East 609 701 35,000  Level FlightAware ADS-B
04:09AM 53.5374 -5.7602 110° East 607 699 35,000  Level FlightAware ADS-B
04:09AM 53.5266 -5.7107 110° East 608 700 35,000  Level FlightAware ADS-B
04:10AM 53.4972 -5.5439 110° East 486 559 35,000  Level FlightAware UK
04:10AM 53.4843 -5.4338 110° East 602 693 35,000  Level FlightAware ADS-B
04:11AM 53.4743 -5.2913 97° East 598 688 35,000  Level FlightAware ADS-B
04:12AM 53.4701 -5.1379 93° East 598 688 35,000  Level FlightAware ADS-B
04:12AM 53.4656 -5.0022 93° East 600 690 35,000  Level FlightAware ADS-B
04:13AM 53.4601 -4.8394 93° East 597 687 35,000  Level FlightAware ADS-B
04:13AM 53.4552 -4.6946 93° East 590 679 35,000  Level FlightAware ADS-B
04:14AM 53.4501 -4.5487 93° East 587 676 35,000  Level FlightAware ADS-B
04:14AM 53.4451 -4.4091 93° East 586 674 35,000  Level FlightAware ADS-B
04:15AM 53.4390 -4.2500 94° East 588 677 35,000  Level FlightAware
04:15AM 53.4359 -4.1590 93° East 589 678 35,000  Level FlightAware ADS-B (EGGP / LPL)
04:16AM 53.4385 -4.2298 274° West 592 681 35,000  Level FlightAware ADS-B
04:16AM 53.4229 -3.8402 274° West 478 550 35,000  Level FlightAware UK
04:17AM 53.4172 -3.7036 94° East 478 550 35,000  Level FlightAware UK
04:17AM 53.4113 -3.5666 94° East 482 555 35,000  Level FlightAware UK
04:18AM 53.4051 -3.4278 94° East 486 559 35,000  Level FlightAware UK
04:18AM 53.3992 -3.3214 94° East 604 695 35,000  Level FlightAware ADS-B
04:18AM 53.3942 -3.2604 98° East 604 695 35,000  Level FlightAware ADS-B (EGBS)
04:19AM 53.3866 -3.1747 98° East 604 695 35,000  Level FlightAware ADS-B
04:19AM 53.3742 -3.0345 98° East 604 695 35,000  Level FlightAware ADS-B
04:19AM 53.3723 -3.0115 98° East 603 694 35,000  Level FlightAware ADS-B (EGXW / WTN)
04:20AM 53.3612 -2.8727 98° East 601 692 35,000  Level FlightAware ADS-B (EGXW / WTN)
04:20AM 53.3564 -2.8157 98° East 604 695 35,000  Level FlightAware ADS-B
04:20AM 53.3478 -2.7093 98° East 601 692 35,000  Level FlightAware ADS-B (LRCV / CRA)
04:21AM 53.3417 -2.6368 98° East 601 692 35,000  Level FlightAware ADS-B
04:21AM 53.3358 -2.5652 98° East 602 693 35,000  Level FlightAware ADS-B (EGCD)
04:22AM 53.3217 -2.3995 98° East 598 688 35,000  Level FlightAware ADS-B (EGXW / WTN)
04:22AM 53.3208 -2.3885 98° East 601 692 35,000  Level FlightAware ADS-B
04:22AM 53.3096 -2.2576 98° East 601 692 35,000  Level FlightAware ADS-B (EGXW / WTN)
04:23AM 53.2961 -2.1036 98° East 602 693 35,000  Level FlightAware ADS-B (EGXW / WTN)
04:23AM 53.2921 -2.0587 98° East 600 690 35,000  Level FlightAware ADS-B
04:23AM 53.2839 -1.9653 98° East 602 693 35,000  Level FlightAware ADS-B
04:23AM 53.2772 -1.8904 98° East 599 689 35,000  Level FlightAware ADS-B (EGCD)
04:23AM 53.2738 -1.8529 99° East 600 690 35,000  Level FlightAware ADS-B
04:24AM 53.2697 -1.8073 98° East 599 689 35,000  Level FlightAware ADS-B (EGHH / BOH)
04:24AM 53.2632 -1.7352 99° East 600 690 35,000  Level FlightAware ADS-B
04:24AM 53.2611 -1.7115 98° East 600 690 35,000  Level FlightAware ADS-B
04:24AM 53.2597 -1.6960 99° East 599 689 35,000  Level FlightAware ADS-B (EGCD)
04:24AM 53.2569 -1.6659 99° East 599 689 35,000  Level FlightAware ADS-B (EGTR / ETR)
04:25AM 53.2477 -1.5664 99° East 600 690 35,000  Level FlightAware ADS-B
04:25AM 53.2450 -1.5363 99° East 599 689 35,000  Level FlightAware ADS-B (LRCV / CRA)
04:25AM 53.2452 -1.5390 278° West 601 692 35,000  Level FlightAware ADS-B
04:25AM 53.2348 -1.4276 99° East 601 692 35,000  Level FlightAware ADS-B
04:25AM 53.2266 -1.3399 99° East 600 690 35,000  Level FlightAware ADS-B (EGXW / WTN)
04:26AM 53.2215 -1.2871 99° East 600 690 35,000  Level FlightAware ADS-B
04:26AM 53.2222 -1.2943 279° West 600 690 35,000  Level FlightAware ADS-B (EGXW / WTN)
04:26AM 53.2187 -1.2570 99° East 598 688 35,000  Level FlightAware ADS-B (EGDM)
04:26AM 53.2081 -1.1468 99° East 600 690 35,000  Level FlightAware ADS-B
04:26AM 53.2063 -1.1286 99° East 600 690 35,000  Level FlightAware ADS-B (EGXW / WTN)
04:27AM 53.1944 -1.0057 99° East 601 692 35,000  Level FlightAware ADS-B
04:27AM 53.1919 -0.9792 99° East 602 693 35,000  Level FlightAware ADS-B (EGXW / WTN)
04:27AM 53.1776 -0.8342 99° East 601 692 35,000  Level FlightAware ADS-B (EGXW / WTN)
04:28AM 53.1666 -0.7232 99° East 600 690 35,000  Level FlightAware ADS-B
04:28AM 53.1642 -0.6997 100° East 600 690 35,000  Level FlightAware ADS-B
04:28AM 53.1514 -0.5724 99° East 600 690 35,000  Level FlightAware ADS-B
04:28AM 53.1494 -0.5524 99° East 600 690 35,000  Level FlightAware ADS-B (EGCD)
04:29AM 53.1341 -0.4027 100° East 599 689 35,000  Level FlightAware ADS-B (EGGP / LPL)
04:29AM 53.1321 -0.3837 100° East 599 689 35,000  Level FlightAware ADS-B
04:29AM 53.1225 -0.2904 100° East 600 690 35,000  Level FlightAware ADS-B
04:29AM 53.1180 -0.2470 100° East 600 690 35,000  Level FlightAware ADS-B
04:30AM 53.1032 -0.1057 100° East 599 689 35,000  Level FlightAware ADS-B
04:30AM 53.0971 -0.0479 100° East 599 689 35,000  Level FlightAware ADS-B (EGXW / WTN)
04:30AM 53.0888 0.0299 100° East 599 689 35,000  Level FlightAware ADS-B
04:31AM 53.0854 0.0616 100° East 598 688 35,000  Level FlightAware ADS-B (LRCV / CRA)
04:31AM 53.0773 0.1376 100° East 598 688 35,000  Level FlightAware ADS-B (EGHH / BOH)
04:31AM 53.0734 0.1737 100° East 598 688 35,000  Level FlightAware ADS-B
04:31AM 53.0666 0.2360 100° East 597 687 35,000  Level FlightAware ADS-B (LRCV / CRA)
04:31AM 53.0584 0.3118 100° East 599 689 35,000  Level FlightAware ADS-B
04:32AM 53.0520 0.3704 100° East 599 689 35,000  Level FlightAware ADS-B (EGXW / WTN)
04:32AM 53.0406 0.4731 100° East 598 688 35,000  Level FlightAware ADS-B
04:32AM 53.0350 0.5235 100° East 597 687 35,000  Level FlightAware ADS-B
04:33AM 53.0245 0.6178 100° East 597 687 35,000  Level FlightAware ADS-B
04:33AM 53.0129 0.7210 101° East 596 686 35,000  Level FlightAware ADS-B (EGXW / WTN)
04:33AM 53.0083 0.7614 101° East 597 687 35,000  Level FlightAware ADS-B
04:34AM 52.9923 0.9024 101° East 597 687 35,000  Level FlightAware ADS-B
04:34AM 52.9914 0.9105 101° East 598 688 35,000  Level FlightAware ADS-B
04:34AM 52.9767 1.0378 101° East 597 687 35,000  Level FlightAware ADS-B
04:34AM 52.9727 1.0728 101° East 597 687 35,000  Level FlightAware ADS-B
04:35AM 52.9601 1.1812 101° East 597 687 35,000  Level FlightAware ADS-B
04:35AM 52.9553 1.2215 101° East 597 687 35,000  Level FlightAware ADS-B (EPRZ / RZE)
04:35AM 52.9441 1.3163 101° East 597 687 35,000  Level FlightAware ADS-B
04:35AM 52.9396 1.3548 101° East 597 687 35,000  Level FlightAware ADS-B (EPRZ / RZE)
04:36AM 52.9273 1.4577 101° East 596 686 35,000  Level FlightAware ADS-B
04:36AM 52.9263 1.4667 101° East 596 686 35,000  Level FlightAware ADS-B (ZBAA / PEK)
04:36AM 52.9110 1.5932 101° East 594 684 35,000  Level FlightAware ADS-B
04:36AM 52.9017 1.6695 101° East 593 682 35,000  Level FlightAware ADS-B (EPRZ / RZE)
04:37AM 52.8945 1.7288 101° East 593 682 35,000  Level FlightAware ADS-B
04:37AM 52.8780 1.8637 101° East 594 684 35,000  Level FlightAware ADS-B
04:38AM 52.8769 1.8726 101° East 592 681 35,000  Level FlightAware ADS-B (EGLC / LCY)
04:38AM 52.8378 2.1881 101° East 488 562 35,000  Level FlightAware UK
04:39AM 52.8315 2.2965 101° East 583 671 35,000  Level FlightAware ADS-B
04:40AM 52.8193 2.4795 101° East 488 562 35,000  Level FlightAware UK
04:40AM 52.8067 2.6379 97° East 490 564 35,000  Level FlightAware UK
04:41AM 52.8021 2.6884 98° East 580 667 35,000  Level FlightAware ADS-B (EPRZ / RZE)
04:41AM 52.7931 2.7954 98° East 490 564 35,000  Level FlightAware UK
04:41AM 52.7867 2.9271 98° East 490 564 35,000  Level FlightAware UK
04:41AM 52.7869 2.9174 94° East 572 658 35,000  Level FlightAware ADS-B (EPRZ / RZE)
04:42AM 52.7807 3.0836 94° East 488 562 35,000  Level FlightAware UK
04:42AM 52.7747 3.2136 94° East 486 559 35,000  Level FlightAware UK
04:42AM 52.7728 3.2439 94° East 572 658 35,000  Level FlightAware ADS-B (EPRZ / RZE)
04:43AM 52.7640 3.4203 95° East 574 661 35,000  Level FlightAware ADS-B (EPRZ / RZE)
04:44AM 52.7545 3.6057 95° East 492 566 35,000  Level FlightAware UK
04:44AM 52.7473 3.7357 95° East 490 564 35,000  Level FlightAware UK
04:45AM 52.7400 3.8646 95° East 488 562 35,000  Level FlightAware UK
04:45AM 52.7328 3.9927 95° East 490 564 35,000  Level FlightAware UK
04:46AM 52.7354 3.9513 95° East 565 650 35,000  Level FlightAware ADS-B (EGLF / FAB)
04:46AM 52.7173 4.2743 95° East 488 562 35,000  Level FlightAware UK
04:47AM 52.7156 4.4015 95° East 492 566 35,000  Level FlightAware UK
04:47AM 52.7141 4.5286 91° East 488 562 35,000  Level FlightAware UK
04:48AM 52.7085 4.7316 92° East 486 559 35,000  Level FlightAware UK
04:49AM 52.7062 4.8579 92° East 490 564 35,000  Level FlightAware UK
04:49AM 52.7100 5.0082 88° East 488 562 35,000  Level FlightAware UK
04:50AM 52.7123 5.1338 88° East 492 566 35,000  Level FlightAware UK
04:50AM 52.7124 5.2581 90° East 486 559 35,000  Level FlightAware UK
04:51AM 52.7143 5.3823 88° East 486 559 35,000  Level FlightAware UK
04:53AM 52.7148 5.8517 90° East 488 562 35,000  Level FlightAware UK
04:53AM 52.7160 5.9746 89° East 484 557 35,000  Level FlightAware UK
05:00AM 52.6978 7.5982 89° East 533 613 35,000  Level FlightAware ADS-B (EDLW / DTM)
05:02AM 52.7203 7.9651 84° East  Level Estimated
05:03AM 52.7340 8.1994 84° East  Level Estimated
05:04AM 52.7472 8.4339 85° East  Level Estimated
05:05AM 52.7601 8.6685 85° East  Level Estimated
05:06AM 52.7724 8.9032 85° East  Level Estimated
05:06AM 52.6683 8.9628 85° East 529 609 35,000  Level FlightAware ADS-B (EDLW / DTM)
05:06AM 52.6636 9.1302 93° East 528 608 35,000  Level FlightAware ADS-B (EDLW / DTM)
05:07AM 52.6595 9.2710 93° East 527 606 35,000  Level FlightAware ADS-B (EDLW / DTM)
05:08AM 52.6534 9.4686 93° East 526 605 35,000  Level FlightAware ADS-B (EDLW / DTM)
05:09AM 52.6460 9.6810 93° East 526 605 35,000  Level FlightAware
05:09AM 52.6420 9.8000 93° East 527 606 35,000  Level FlightAware
05:10AM 52.6390 9.9020 93° East 526 605 35,000  Level FlightAware
05:10AM 52.6330 10.0600 94° East 525 604 35,000  Level FlightAware
05:11AM 52.6260 10.2540 93° East 519 597 35,000  Level FlightAware
05:11AM 52.6210 10.3680 94° East 522 601 35,000  Level FlightAware
05:12AM 52.6160 10.5030 93° East 524 603 35,000  Level FlightAware
05:13AM 52.6080 10.6900 94° East 519 597 35,000  Level FlightAware
05:13AM 52.6040 10.8000 93° East 519 597 35,000  Level FlightAware
05:14AM 52.5970 10.9590 94° East 520 598 35,000  Level FlightAware
05:15AM 52.5920 11.0660 94° East 518 596 35,000  Level FlightAware
05:15AM 52.5850 11.2180 94° East 519 597 35,000  Level FlightAware
05:16AM 52.5780 11.3610 95° East 519 597 35,000  Level FlightAware
05:16AM 52.5740 11.4560 94° East 519 597 35,000  Level FlightAware
05:17AM 52.5650 11.6360 95° East 515 593 35,000  Level FlightAware
05:17AM 52.5580 11.7690 95° East 512 589 35,000  Level FlightAware
05:18AM 52.5510 11.9140 94° East 511 588 35,000  Level FlightAware
05:19AM 52.5440 12.0460 95° East 512 589 35,000  Level FlightAware
05:19AM 52.5340 12.2170 95° East 516 594 35,000  Level FlightAware
05:20AM 52.5293 12.3086 95° East 516 594 35,000  Level FlightAware ADS-B (ESMN)
05:21AM 52.5150 12.5520 95° East 514 592 35,000  Level FlightAware
05:22AM 52.4997 12.8017 96° East 518 596 35,000  Level FlightAware ADS-B (ESMN)
05:22AM 52.4924 12.9192 96° East 518 596 35,000  Level FlightAware ADS-B (ESMN)
05:23AM 52.4810 13.0930 96° East 512 589 35,000  Level FlightAware
05:24AM 52.4690 13.2780 96° East 509 586 35,000  Level FlightAware
05:25AM 52.4540 13.4960 96° East 511 588 35,000  Level FlightAware
05:26AM 52.4400 13.7030 96° East 513 590 35,000  Level FlightAware
05:27AM 52.4260 13.9010 97° East 515 593 35,000  Level FlightAware
05:28AM 52.4110 14.1140 97° East 511 588 35,000  Level FlightAware
05:29AM 52.3940 14.3400 97° East 506 582 35,000  Level FlightAware
05:29AM 52.3780 14.5530 97° East 511 588 35,000  Level FlightAware
05:30AM 52.3650 14.7170 97° East 513 590 35,000  Level FlightAware
05:31AM 52.3580 14.8020 98° East 512 589 35,000  Level FlightAware
05:32AM 52.3360 15.0700 98° East 508 585 35,000  Level FlightAware
05:32AM 52.3240 15.2170 98° East 507 583 35,000  Level FlightAware
05:33AM 52.3050 15.4450 98° East 509 586 35,000  Level FlightAware
05:34AM 52.2950 15.5620 98° East 508 585 35,000  Level FlightAware
05:34AM 52.2850 15.6780 98° East 508 585 35,000  Level FlightAware
05:35AM 52.2730 15.8090 98° East 508 585 35,000  Level FlightAware
05:36AM 52.2620 15.9420 98° East 508 585 35,000  Level FlightAware
05:36AM 52.2510 16.0550 99° East 510 587 35,000  Level FlightAware
05:37AM 52.2360 16.2240 98° East 511 588 35,000  Level FlightAware
05:37AM 52.2250 16.3390 99° East 512 589 35,000  Level FlightAware
05:38AM 52.2110 16.4930 98° East 502 578 35,000  Level FlightAware
05:39AM 52.1860 16.7540 99° East 508 585 35,000  Level FlightAware
05:40AM 52.1770 16.8460 99° East 509 586 35,000  Level FlightAware
05:40AM 52.1630 16.9840 99° East 512 589 35,000  Level FlightAware
05:41AM 52.1370 17.2460 99° East 512 589 35,000  Level FlightAware
05:42AM 52.1250 17.3670 99° East 512 589 35,000  Level FlightAware
05:42AM 52.1110 17.5030 99° East 516 594 35,000  Level FlightAware
05:43AM 52.0970 17.6390 99° East 515 593 35,000  Level FlightAware
05:44AM 52.0830 17.7750 99° East 508 585 35,000  Level FlightAware
05:44AM 52.0610 17.9730 100° East 510 587 35,000  Level FlightAware
05:45AM 52.0478 18.0975 100° East 516 594 35,000  Level FlightAware ADS-B (EPSY / SZY)
05:46AM 52.0185 18.3642 100° East 521 600 35,000  Level FlightAware ADS-B (EPSY / SZY)
05:47AM 52.0044 18.4916 100° East 521 600 35,000  Level FlightAware ADS-B (EPSY / SZY)
05:48AM 51.9815 18.6933 100° East 520 598 35,000  Level FlightAware ADS-B (EPSY / SZY)
05:48AM 51.9650 18.8369 101° East 521 600 35,000  Level FlightAware ADS-B (EPSY / SZY)
05:49AM 51.9477 18.9857 101° East 523 602 35,000  Level FlightAware ADS-B (EPSY / SZY)
05:49AM 51.9338 19.1045 101° East 522 601 35,000  Level FlightAware ADS-B (EPSY / SZY)
05:51AM 51.9058 19.3401 101° East 522 601 35,000  Level FlightAware ADS-B (EPSY / SZY)
05:51AM 51.8899 19.4722 101° East 522 601 35,000  Level FlightAware ADS-B (EPSY / SZY)
05:52AM 51.8708 19.6290 101° East 519 597 35,000  Level FlightAware ADS-B (EPSY / SZY)
05:52AM 51.8569 19.7239 103° East 510 587 35,000  Level FlightAware ADS-B (EPSY / SZY)
05:53AM 51.8193 19.9328 106° East 512 589 35,000  Level FlightAware ADS-B (EPSY / SZY)
05:54AM 51.7973 20.0508 107° East 512 589 35,000  Level FlightAware ADS-B (EPSY / SZY)
05:54AM 51.7813 20.1362 107° East 513 590 35,000  Level FlightAware ADS-B
05:54AM 51.7635 20.2304 107° East 513 590 35,000  Level FlightAware ADS-B (EPSY / SZY)
05:55AM 51.7389 20.3621 107° East 514 592 35,000  Level FlightAware ADS-B (EPSY / SZY)
05:55AM 51.7308 20.4060 107° East 513 590 35,000  Level FlightAware ADS-B
05:56AM 51.7112 20.5117 107° East 512 589 35,000  Level FlightAware ADS-B (EPSY / SZY)
05:56AM 51.7049 20.5451 107° East 509 586 35,000  Level FlightAware ADS-B
05:56AM 51.6900 20.6251 107° East 508 585 35,000  Level FlightAware ADS-B
05:57AM 51.6687 20.7383 107° East 509 586 35,000  Level FlightAware ADS-B (EPSY / SZY)
05:57AM 51.6487 20.8436 107° East 507 583 35,000  Level FlightAware ADS-B (EPSY / SZY)
05:58AM 51.6287 20.9486 107° East 506 582 35,000  Level FlightAware ADS-B
05:58AM 51.6038 21.0784 107° East 503 579 35,000  Level FlightAware ADS-B
05:59AM 51.5818 21.2575 101° East 515 593 35,000  Level FlightAware ADS-B (EPSY / SZY)
06:00AM 51.5701 21.3688 100° East 514 592 35,000  Level FlightAware ADS-B (EPSY / SZY)
06:00AM 51.5579 21.4816 100° East 516 594 35,000  Level FlightAware ADS-B (EPSY / SZY)
06:00AM 51.5554 21.5049 100° East 513 590 35,000  Level FlightAware ADS-B
06:01AM 51.5381 21.6639 100° East 514 592 35,000  Level FlightAware ADS-B (EPSY / SZY)
06:01AM 51.5261 21.7728 100° East 511 588 35,000  Level FlightAware ADS-B (EPSY / SZY)
06:02AM 51.5137 21.8848 100° East 508 585 35,000  Level FlightAware ADS-B (EPSY / SZY)
06:02AM 51.5018 21.9901 100° East 509 586 35,000  Level FlightAware ADS-B (EPSY / SZY)
06:03AM 51.4866 22.1245 100° East 510 587 35,000  Level FlightAware ADS-B
06:04AM 51.4737 22.2369 100° East 511 588 35,000  Level FlightAware ADS-B
06:04AM 51.4604 22.3524 100° East 511 588 35,000  Level FlightAware ADS-B
06:05AM 51.4467 22.4702 101° East 512 589 35,000  Level FlightAware ADS-B
06:05AM 51.4336 22.5822 101° East 513 590 35,000  Level FlightAware ADS-B
06:06AM 51.4201 22.6957 101° East 514 592 35,000  Level FlightAware ADS-B
06:06AM 51.4061 22.8120 101° East 513 590 35,000  Level FlightAware ADS-B
06:07AM 51.3916 22.9321 101° East 513 590 35,000  Level FlightAware ADS-B
06:07AM 51.3778 23.0459 101° East 511 588 35,000  Level FlightAware ADS-B
06:08AM 51.3649 23.1498 101° East 511 588 35,000  Level FlightAware ADS-B (EPSY / SZY)
06:08AM 51.3499 23.2722 101° East 501 577 35,000  Level FlightAware ADS-B
06:09AM 51.3354 23.3879 101° East 501 577 35,000  Level FlightAware ADS-B
06:09AM 51.3218 23.4956 101° East 502 578 35,000  Level FlightAware ADS-B
06:10AM 51.3068 23.6136 101° East 502 578 35,000  Level FlightAware ADS-B
06:10AM 51.2922 23.7244 102° East 504 580 35,000  Level FlightAware ADS-B
06:11AM 51.2796 23.8100 103° East 505 581 35,000  Level FlightAware ADS-B (EPSY / SZY)
06:11AM 51.2623 23.9256 103° East 505 581 35,000  Level FlightAware ADS-B (EPSY / SZY)
06:12AM 51.2442 24.0490 103° East 502 578 35,000  Level FlightAware ADS-B (EPSY / SZY)
06:12AM 51.2283 24.1566 103° East 499 574 35,000  Level FlightAware ADS-B
06:13AM 51.2061 24.3061 103° East 496 571 35,000 60 Level FlightAware ADS-B (EPSY / SZY)
06:14AM 51.1870 24.4330 103° East 496 571 35,100 120 Climbing FlightAware
06:14AM 51.1821 24.4663 103° East 497 572 35,100 240 Level FlightAware ADS-B (EPSY / SZY)
06:15AM 51.1520 24.6670 103° East 493 567 35,400 300 Climbing FlightAware
06:15AM 51.1280 24.8200 104° East 487 560 35,700 300 Climbing FlightAware
06:16AM 51.0960 25.0290 104° East 488 562 36,000 240 Climbing FlightAware
06:17AM 51.0780 25.1440 104° East 489 563 36,100 240 Climbing FlightAware
06:17AM 51.0610 25.2510 104° East 490 564 36,300 360 Climbing FlightAware
06:18AM 51.0430 25.3640 104° East 492 566 36,500 300 Climbing FlightAware
06:19AM 51.0190 25.5130 104° East 495 570 36,700 240 Climbing FlightAware
06:19AM 50.9940 25.6680 104° East 502 578 36,900 240 Climbing FlightAware
06:20AM 50.9760 25.7740 105° East 502 578 37,000 60 Climbing FlightAware
06:20AM 50.9580 25.8870 104° East 500 575 37,000  Level FlightAware
06:21AM 50.9370 26.0160 104° East 501 577 37,000  Level FlightAware
06:22AM 50.9130 26.1590 105° East 502 578 37,000  Level FlightAware
06:22AM 50.8950 26.2660 105° East 507 583 37,000  Level FlightAware
06:23AM 50.8710 26.4090 105° East 510 587 37,000  Level FlightAware
06:24AM 50.8460 26.5560 105° East 513 590 37,000  Level FlightAware
06:24AM 50.8290 26.6510 106° East 507 583 37,000  Level FlightAware
06:25AM 50.8070 26.7810 105° East 502 578 37,000  Level FlightAware
06:26AM 50.7710 26.9890 105° East 493 567 37,000  Level FlightAware
06:26AM 50.7460 27.1290 106° East 489 563 37,000  Level FlightAware
06:27AM 50.7230 27.2580 106° East 485 558 37,000  Level FlightAware
06:27AM 50.6970 27.3650 111° Southeast 478 550 37,000  Level FlightAware
06:28AM 50.6610 27.5030 112° Southeast 477 549 37,000  Level FlightAware
06:29AM 50.6310 27.6150 113° Southeast 483 556 37,000  Level FlightAware
06:30AM 50.5820 27.8050 112° Southeast 493 567 37,000  Level FlightAware
06:31AM 50.5190 28.0440 112° Southeast 491 565 37,000  Level FlightAware
06:31AM 50.4950 28.1340 113° Southeast 486 559 37,000  Level FlightAware
06:32AM 50.4630 28.2570 112° Southeast 474 545 37,000  Level FlightAware
06:33AM 50.4330 28.3700 113° Southeast 476 548 37,000  Level FlightAware
06:33AM 50.3940 28.5160 113° Southeast 482 555 37,000  Level FlightAware
06:34AM 50.3410 28.7110 113° Southeast 486 559 37,000  Level FlightAware
06:35AM 50.2850 28.9170 113° Southeast 486 559 37,000  Level FlightAware
06:36AM 50.2400 29.0830 113° Southeast 483 556 37,000  Level FlightAware
06:37AM 50.2170 29.1660 113° Southeast 483 556 37,000  Level FlightAware
06:37AM 50.1900 29.2620 114° Southeast 481 554 37,000  Level FlightAware
06:38AM 50.1560 29.3860 113° Southeast 483 556 37,000  Level FlightAware
06:39AM 50.1230 29.5040 114° Southeast 484 557 37,000  Level FlightAware
06:39AM 50.0950 29.6020 114° Southeast 486 559 37,000  Level FlightAware
06:40AM 50.0660 29.7050 114° Southeast 486 559 37,000  Level FlightAware
06:41AM 50.0050 29.9210 114° Southeast 485 558 37,000  Level FlightAware
06:41AM 49.9700 30.0430 114° Southeast 486 559 37,000  Level FlightAware
06:42AM 49.9120 30.2470 114° Southeast 490 564 37,000  Level FlightAware
06:43AM 49.8780 30.3620 115° Southeast 488 562 37,000  Level FlightAware
06:43AM 49.8500 30.4600 114° Southeast 488 562 37,000  Level FlightAware
06:44AM 49.8120 30.5890 114° Southeast 486 559 37,000  Level FlightAware
06:45AM 49.7760 30.7130 114° Southeast 489 563 37,000  Level FlightAware
06:46AM 49.7410 30.8300 115° Southeast 490 564 37,000  Level FlightAware
06:46AM 49.7010 30.9640 115° Southeast 484 557 37,000  Level FlightAware
06:47AM 49.6640 31.0890 115° Southeast 476 548 37,000  Level FlightAware
06:48AM 49.6260 31.2150 115° Southeast 476 548 37,000  Level FlightAware
06:48AM 49.5940 31.3220 115° Southeast 476 548 37,000  Level FlightAware
06:49AM 49.5530 31.4580 115° Southeast 479 551 37,000  Level FlightAware
06:49AM 49.5260 31.5450 116° Southeast 480 552 37,000  Level FlightAware
06:50AM 49.4880 31.6720 115° Southeast 476 548 37,000  Level FlightAware
06:51AM 49.4490 31.7970 116° Southeast 476 548 37,000  Level FlightAware
06:51AM 49.4170 31.9020 115° Southeast 476 548 37,000  Level FlightAware
06:52AM 49.3840 32.0070 116° Southeast 478 550 37,000  Level FlightAware
06:52AM 49.3500 32.1180 115° Southeast 480 552 37,000  Level FlightAware
06:53AM 49.3070 32.2530 116° Southeast 479 551 37,000  Level FlightAware
06:54AM 49.2790 32.3440 115° Southeast 481 554 37,000  Level FlightAware
06:55AM 49.2270 32.5090 116° Southeast 477 549 37,000  Level FlightAware
06:55AM 49.1870 32.6350 116° Southeast 481 554 37,000  Level FlightAware
06:56AM 49.1250 32.8280 116° Southeast 477 549 37,000  Level FlightAware
06:57AM 49.0800 32.9670 116° Southeast 477 549 37,000  Level FlightAware
06:58AM 49.0460 33.0720 116° Southeast 474 545 37,000  Level FlightAware
06:58AM 49.0130 33.1740 116° Southeast 475 547 37,000  Level FlightAware
06:59AM 48.9730 33.2980 116° Southeast 473 544 37,000  Level FlightAware
07:00AM 48.9390 33.4010 117° Southeast 471 542 37,000  Level FlightAware
07:00AM 48.9000 33.5190 117° Southeast 468 539 37,000  Level FlightAware
07:01AM 48.8560 33.6520 117° Southeast 469 540 37,000  Level FlightAware
07:02AM 48.8220 33.7550 117° Southeast 469 540 37,000  Level FlightAware
07:02AM 48.7830 33.8710 117° Southeast 470 541 37,000  Level FlightAware
07:03AM 48.7380 34.0040 117° Southeast 471 542 37,000  Level FlightAware
07:04AM 48.7040 34.1060 117° Southeast 471 542 37,000  Level FlightAware
07:04AM 48.6700 34.2070 117° Southeast 471 542 37,000  Level FlightAware
07:05AM 48.6300 34.3240 117° Southeast 472 543 37,000  Level FlightAware
07:06AM 48.5610 34.5250 117° Southeast 472 543 37,000  Level FlightAware
07:06AM 48.5490 34.5590 118° Southeast 472 543 37,000  Level FlightAware
07:07AM 48.4920 34.7240 117° Southeast 471 542 37,000  Level FlightAware
07:08AM 48.4600 34.8180 117° Southeast 469 540 37,000  Level FlightAware
07:08AM 48.4280 34.9080 118° Southeast 469 540 37,000  Level FlightAware
07:09AM 48.3880 35.0220 118° Southeast 467 537 37,000  Level FlightAware
07:09AM 48.3510 35.1270 118° Southeast 467 537 37,000  Level FlightAware
07:10AM 48.3210 35.2140 117° Southeast 465 535 37,000  Level FlightAware
07:11AM 48.2800 35.3310 118° Southeast 465 535 37,000  Level FlightAware
07:11AM 48.2460 35.4310 117° Southeast 465 535 37,000  Level FlightAware
07:12AM 48.1870 35.5970 118° Southeast 461 531 37,000  Level FlightAware
07:13AM 48.1500 35.7030 118° Southeast 463 533 37,000  Level FlightAware
07:13AM 48.1130 35.8070 118° Southeast 463 533 37,000  Level FlightAware
07:14AM 48.0740 35.9160 118° Southeast 462 532 37,000  Level FlightAware
07:15AM 48.0270 36.0500 118° Southeast 463 533 37,000  Level FlightAware
07:15AM 47.9900 36.1530 118° Southeast 460 529 37,000  Level FlightAware
07:16AM 47.9550 36.2720 114° Southeast 463 533 37,000  Level FlightAware
07:17AM 47.9340 36.3700 108° East 463 533 37,000  Level FlightAware
07:17AM 47.9080 36.4920 108° East 463 533 37,000  Level FlightAware
07:19AM 47.8570 36.7290 108° East 463 533 37,000  Level FlightAware
07:19AM 47.8360 36.8270 108° East 462 532 37,000  Level FlightAware
07:20AM 47.8110 36.9400 108° East 458 527 37,000  Level FlightAware
07:20AM 47.7880 37.0480 108° East 457 526 37,000  Level FlightAware
07:21AM 47.7700 37.1310 108° East 457 526 37,000  Level FlightAware
07:22AM 47.7420 37.2630 107° East 458 527 37,000  Level FlightAware
07:22AM 47.7250 37.3610 104° East 458 527 37,000  Level FlightAware
07:23AM 47.7040 37.4810 105° East 458 527 37,000  Level FlightAware
07:23AM 47.6860 37.5820 105° East 457 526 37,000  Level FlightAware
07:24AM 47.6710 37.6670 105° East 458 527 37,000  Level FlightAware
07:24AM 47.6530 37.7720 104° East 459 528 37,000  Level FlightAware
07:25AM 47.6370 37.8580 105° East 458 527 37,000  Level FlightAware
07:26AM 47.6130 37.9950 105° East 459 528 37,000  Level FlightAware
07:27AM 47.5720 38.2200 105° East 458 527 37,000  Level FlightAware
07:27AM 47.5510 38.3370 105° East 460 529 37,000  Level FlightAware
07:28AM 47.5270 38.4570 106° East 459 528 37,000  Level FlightAware
07:29AM 47.5100 38.5430 106° East 459 528 37,000  Level FlightAware
07:29AM 47.4950 38.6170 107° East 459 528 37,000  Level FlightAware
07:30AM 47.4680 38.7560 106° East 459 528 37,000  Level FlightAware
07:31AM 47.4430 38.8800 107° East 460 529 37,000  Level FlightAware
07:32AM 47.3880 39.1520 107° East 459 528 37,000  Level FlightAware
07:33AM 47.3650 39.2650 107° East 460 529 37,000  Level FlightAware
07:33AM 47.3450 39.3640 107° East 461 531 37,000  Level FlightAware
07:34AM 47.3160 39.5070 107° East 461 531 37,000  Level FlightAware
07:35AM 47.2940 39.6130 107° East 462 532 37,000  Level FlightAware
07:35AM 47.2690 39.7330 107° East 462 532 37,000  Level FlightAware
07:36AM 47.2500 39.8210 108° East 461 531 37,000  Level FlightAware
07:36AM 47.2280 39.9330 106° East 462 532 37,000  Level FlightAware
07:37AM 47.2100 40.0260 106° East 463 533 37,000  Level FlightAware
07:38AM 47.1840 40.1560 106° East 464 534 37,000  Level FlightAware
07:38AM 47.1610 40.2710 106° East 462 532 37,000  Level FlightAware
07:39AM 47.1400 40.3750 106° East 463 533 37,000  Level FlightAware
07:40AM 47.1230 40.4580 107° East 462 532 37,000  Level FlightAware
07:40AM 47.0860 40.6300 107° East 462 532 37,000  Level FlightAware
07:41AM 47.0460 40.8110 108° East 463 533 37,000  Level FlightAware
07:42AM 47.0180 40.9390 108° East 464 534 37,000  Level FlightAware
07:43AM 46.9930 41.0520 108° East 465 535 37,000  Level FlightAware
07:43AM 46.9680 41.1670 108° East 466 536 37,000  Level FlightAware
07:44AM 46.9410 41.2860 108° East 467 537 37,000  Level FlightAware
07:44AM 46.9180 41.3900 108° East 466 536 37,000  Level FlightAware
07:45AM 46.8950 41.4940 108° East 465 535 37,000  Level FlightAware
07:46AM 46.8680 41.6140 108° East 466 536 37,000  Level FlightAware
07:46AM 46.8420 41.7250 109° East 467 537 37,000  Level FlightAware
07:47AM 46.8210 41.8210 108° East 466 536 37,000  Level FlightAware
07:48AM 46.7950 41.9340 109° East 466 536 37,000  Level FlightAware
07:48AM 46.7610 42.0850 108° East 466 536 37,000  Level FlightAware
07:49AM 46.7430 42.1600 109° East 466 536 37,000  Level FlightAware
07:49AM 46.7140 42.2790 110° East 467 537 37,000  Level FlightAware
07:50AM 46.6860 42.3980 109° East 467 537 37,000  Level FlightAware
07:51AM 46.6470 42.5640 109° East 467 537 37,000  Level FlightAware
07:52AM 46.6270 42.6510 108° East 466 536 37,000  Level FlightAware
07:52AM 46.6000 42.7610 110° East 465 535 37,000  Level FlightAware
07:53AM 46.5730 42.8760 109° East 468 539 37,000  Level FlightAware
07:54AM 46.5430 43.0020 109° East 467 537 37,000  Level FlightAware
07:54AM 46.5180 43.1060 109° East 465 535 37,000  Level FlightAware
07:55AM 46.4950 43.2010 109° East 467 537 37,000  Level FlightAware
07:55AM 46.4710 43.2980 110° East 469 540 37,000  Level FlightAware
07:56AM 46.4480 43.3930 109° East 470 541 37,000  Level FlightAware
07:57AM 46.3990 43.5920 110° East 471 542 37,000  Level FlightAware
07:58AM 46.3540 43.7700 110° East 471 542 37,000  Level FlightAware
07:58AM 46.3330 43.8560 109° East 473 544 37,000  Level FlightAware
07:59AM 46.2990 43.9900 110° East 472 543 37,000  Level FlightAware
07:59AM 46.2790 44.0690 110° East 472 543 37,000  Level FlightAware
08:00AM 46.2460 44.2020 110° East 472 543 37,000  Level FlightAware
08:01AM 46.2300 44.2650 110° East 472 543 37,000  Level FlightAware
08:01AM 46.1900 44.4190 111° Southeast 475 547 37,000  Level FlightAware
08:02AM 46.1670 44.5100 110° East 475 547 37,000  Level FlightAware
08:03AM 46.1360 44.6300 110° East 473 544 37,000  Level FlightAware
08:03AM 46.1090 44.7310 111° Southeast 475 547 37,000  Level FlightAware
08:04AM 46.0820 44.8360 110° East 474 545 37,000  Level FlightAware
08:04AM 46.0510 44.9520 111° Southeast 472 543 37,000  Level FlightAware
08:05AM 46.0100 45.1070 111° Southeast 475 547 37,000  Level FlightAware
08:06AM 45.9740 45.2460 110° East 476 548 37,000  Level FlightAware
08:07AM 45.9560 45.3140 111° Southeast 476 548 37,000  Level FlightAware
08:07AM 45.9170 45.4600 111° Southeast 476 548 37,000  Level FlightAware
08:08AM 45.8780 45.6050 111° Southeast 476 548 37,000  Level FlightAware
08:09AM 45.8520 45.7010 111° Southeast 478 550 37,000  Level FlightAware
08:09AM 45.8170 45.8280 112° Southeast 480 552 37,000  Level FlightAware
08:10AM 45.7890 45.9320 111° Southeast 481 554 37,000  Level FlightAware
08:11AM 45.7590 46.0410 111° Southeast 481 554 37,000  Level FlightAware
08:11AM 45.7200 46.1810 112° Southeast 482 555 37,000  Level FlightAware
08:12AM 45.6710 46.3600 111° Southeast 485 558 37,000  Level FlightAware
08:13AM 45.6330 46.4940 112° Southeast 484 557 37,000  Level FlightAware
08:14AM 45.6000 46.6130 112° Southeast 484 557 37,000  Level FlightAware
08:15AM 45.5440 46.8110 112° Southeast 487 560 37,000  Level FlightAware
08:16AM 45.4930 46.9900 112° Southeast 487 560 37,000  Level FlightAware
08:17AM 45.4640 47.0910 112° Southeast 487 560 37,000  Level FlightAware
08:18AM 45.4050 47.2990 112° Southeast 488 562 37,000  Level FlightAware
08:18AM 45.3660 47.4320 113° Southeast 490 564 37,000  Level FlightAware
08:19AM 45.3410 47.5180 112° Southeast 490 564 37,000  Level FlightAware
08:20AM 45.3060 47.6380 112° Southeast 490 564 37,000  Level FlightAware
08:20AM 45.2710 47.7570 113° Southeast 492 566 37,000  Level FlightAware
08:21AM 45.2410 47.8600 112° Southeast 492 566 37,000  Level FlightAware
08:21AM 45.2150 47.9480 113° Southeast 493 567 37,000  Level FlightAware
08:22AM 45.1790 48.0660 113° Southeast 495 570 37,000  Level FlightAware
08:23AM 45.1480 48.1720 112° Southeast 495 570 37,000  Level FlightAware
08:23AM 45.1110 48.2960 113° Southeast 496 571 37,000  Level FlightAware
08:24AM 45.0840 48.3840 113° Southeast 496 571 37,000  Level FlightAware
08:25AM 45.0400 48.5300 113° Southeast 495 570 37,000  Level FlightAware
08:25AM 45.0170 48.6050 113° Southeast 494 568 37,000  Level FlightAware
08:26AM 44.9760 48.7400 113° Southeast 496 571 37,000  Level FlightAware
08:27AM 44.9380 48.8650 113° Southeast 495 570 37,000  Level FlightAware
08:27AM 44.9040 48.9730 114° Southeast 497 572 37,000  Level FlightAware
08:28AM 44.8790 49.0540 114° Southeast 497 572 37,000  Level FlightAware
08:29AM 44.8060 49.2880 114° Southeast 498 573 37,000  Level FlightAware
08:29AM 44.7870 49.3490 114° Southeast 498 573 37,000  Level FlightAware
08:30AM 44.7350 49.4960 116° Southeast 502 578 37,000  Level FlightAware
08:31AM 44.6880 49.5910 125° Southeast 504 580 37,000  Level FlightAware
08:31AM 44.6270 49.7070 126° Southeast 505 581 37,000  Level FlightAware
08:32AM 44.5760 49.8040 126° Southeast 505 581 37,000  Level FlightAware
08:33AM 44.5270 49.8960 127° Southeast 506 582 37,000  Level FlightAware
08:33AM 44.4810 49.9790 128° Southeast 506 582 37,000  Level FlightAware
08:34AM 44.4330 50.0680 127° Southeast 505 581 37,000  Level FlightAware
08:34AM 44.3840 50.1590 127° Southeast 505 581 37,000  Level FlightAware
08:35AM 44.3410 50.2390 127° Southeast 505 581 37,000  Level FlightAware
08:36AM 44.2360 50.4270 128° Southeast 507 583 37,000  Level FlightAware
08:36AM 44.2060 50.4830 127° Southeast 507 583 37,000  Level FlightAware
08:37AM 44.1350 50.6100 128° Southeast 509 586 37,000  Level FlightAware
08:38AM 44.0360 50.7870 128° Southeast 509 586 37,000  Level FlightAware
08:39AM 43.9960 50.8570 128° Southeast 510 587 37,000  Level FlightAware
08:40AM 43.9360 50.9690 127° Southeast 510 587 37,000  Level FlightAware
08:40AM 43.8940 51.0460 127° Southeast 510 587 37,000  Level FlightAware
08:41AM 43.9140 51.0030 303° West 510 587 37,000  Level FlightAware
08:42AM 43.8390 51.1360 128° Southeast 510 587 37,000  Level FlightAware
08:42AM 43.7650 51.2310 137° Southeast 504 580 37,000  Level FlightAware
08:43AM 43.6650 51.3730 134° Southeast 504 580 37,000  Level FlightAware
08:44AM 43.6260 51.4270 135° Southeast 505 581 37,000  Level FlightAware
08:44AM 43.5510 51.5320 135° Southeast 507 583 37,000  Level FlightAware
08:45AM 43.4910 51.6150 135° Southeast 508 585 37,000  Level FlightAware
08:45AM 43.4440 51.6790 135° Southeast 508 585 37,000  Level FlightAware
08:46AM 43.3270 51.8410 135° Southeast 507 583 37,000  Level FlightAware
08:47AM 43.2810 51.9030 136° Southeast 507 583 37,000  Level FlightAware
08:48AM 43.2040 52.0080 135° Southeast 509 586 37,000  Level FlightAware
08:49AM 43.1610 52.0660 135° Southeast 509 586 37,000  Level FlightAware
08:49AM 43.1050 52.1430 135° Southeast 510 587 37,000  Level FlightAware
08:50AM 43.0660 52.1960 135° Southeast 510 587 37,000  Level FlightAware
08:50AM 43.0290 52.2450 136° Southeast 508 585 37,000  Level FlightAware
08:51AM 42.9730 52.3230 134° Southeast 508 585 37,000  Level FlightAware
08:52AM 42.9220 52.3920 135° Southeast 508 585 37,000  Level FlightAware
08:53AM 42.8030 52.5540 135° Southeast 508 585 37,000  Level FlightAware
08:54AM 42.7690 52.6000 135° Southeast 508 585 37,000  Level FlightAware
08:54AM 42.7170 52.6720 134° Southeast 508 585 37,000  Level FlightAware
08:55AM 42.6660 52.7410 135° Southeast 508 585 37,000  Level FlightAware
08:56AM 42.6150 52.8100 135° Southeast 508 585 37,000  Level FlightAware
08:56AM 42.5480 52.9020 135° Southeast 508 585 37,000  Level FlightAware
08:57AM 42.4970 52.9710 135° Southeast 508 585 37,000  Level FlightAware
08:58AM 42.4460 53.0400 135° Southeast 508 585 37,000  Level FlightAware
08:58AM 42.3950 53.1090 135° Southeast 508 585 37,000  Level FlightAware
08:59AM 42.3270 53.2010 135° Southeast 508 585 37,000  Level FlightAware
09:00AM 42.2760 53.2690 135° Southeast 508 585 37,000  Level FlightAware
09:00AM 42.2250 53.3380 135° Southeast 508 585 37,000  Level FlightAware
09:01AM 42.1920 53.3840 134° Southeast 508 585 37,000  Level FlightAware
09:04AM 41.9965 53.8786 118° Southeast  Level Estimated
09:05AM 41.9290 54.0475 118° Southeast  Level Estimated
09:06AM 41.8612 54.2161 118° Southeast  Level Estimated
09:07AM 41.7932 54.3842 118° Southeast  Level Estimated
09:08AM 41.7250 54.5521 119° Southeast  Level Estimated
09:09AM 41.6565 54.7195 119° Southeast  Level Estimated
09:10AM 41.5877 54.8866 119° Southeast  Level Estimated
09:11AM 41.5187 55.0534 119° Southeast  Level Estimated
09:12AM 41.4495 55.2197 119° Southeast  Level Estimated
09:13AM 41.3801 55.3858 119° Southeast  Level Estimated
09:14AM 41.3104 55.5515 119° Southeast  Level Estimated
09:15AM 41.2404 55.7168 119° Southeast  Level Estimated
09:16AM 41.1703 55.8818 119° Southeast  Level Estimated
09:17AM 41.0999 56.0464 120° Southeast  Level Estimated
09:18AM 41.0292 56.2107 120° Southeast  Level Estimated
09:19AM 40.9584 56.3746 120° Southeast  Level Estimated
09:20AM 40.8872 56.5381 120° Southeast  Level Estimated
09:21AM 40.8159 56.7013 120° Southeast  Level Estimated
09:22AM 40.7444 56.8642 120° Southeast  Level Estimated
09:23AM 40.6726 57.0267 120° Southeast  Level Estimated
09:24AM 40.6006 57.1889 120° Southeast  Level Estimated
09:25AM 40.5283 57.3507 120° Southeast  Level Estimated
09:26AM 40.4558 57.5121 120° Southeast  Level Estimated
09:27AM 40.3831 57.6732 121° Southeast  Level Estimated
09:28AM 40.3102 57.8340 121° Southeast  Level Estimated
09:29AM 40.2371 57.9944 121° Southeast  Level Estimated
09:30AM 40.1637 58.1545 121° Southeast  Level Estimated
09:31AM 40.0901 58.3142 121° Southeast  Level Estimated
09:32AM 40.0163 58.4736 121° Southeast  Level Estimated
09:33AM 39.9423 58.6326 121° Southeast  Level Estimated
09:34AM 39.8681 58.7913 121° Southeast  Level Estimated
09:35AM 39.7936 58.9496 121° Southeast  Level Estimated
09:36AM 39.7190 59.1077 122° Southeast  Level Estimated
09:37AM 39.6441 59.2653 122° Southeast  Level Estimated
09:38AM 39.5690 59.4226 122° Southeast  Level Estimated
09:39AM 39.4937 59.5796 122° Southeast  Level Estimated
09:40AM 39.4182 59.7363 122° Southeast  Level Estimated
09:41AM 39.3425 59.8926 122° Southeast  Level Estimated
09:42AM 39.2665 60.0485 122° Southeast  Level Estimated
09:43AM 39.1904 60.2041 122° Southeast  Level Estimated
09:44AM 39.1141 60.3594 122° Southeast  Level Estimated
09:45AM 39.0375 60.5144 122° Southeast  Level Estimated
09:46AM 38.9607 60.6690 123° Southeast  Level Estimated
09:47AM 38.8838 60.8232 123° Southeast  Level Estimated
09:48AM 38.8066 60.9772 123° Southeast  Level Estimated
09:49AM 38.7293 61.1308 123° Southeast  Level Estimated
09:50AM 38.6517 61.2841 123° Southeast  Level Estimated
09:51AM 38.5739 61.4370 123° Southeast  Level Estimated
09:52AM 38.4960 61.5896 123° Southeast  Level Estimated
09:53AM 38.4178 61.7419 123° Southeast  Level Estimated
09:54AM 38.3395 61.8938 123° Southeast  Level Estimated
09:55AM 38.2609 62.0455 123° Southeast  Level Estimated
09:56AM 38.1822 62.1968 123° Southeast  Level Estimated
09:57AM 38.1032 62.3477 124° Southeast  Level Estimated
09:58AM 38.0241 62.4984 124° Southeast  Level Estimated
09:59AM 37.9448 62.6487 124° Southeast  Level Estimated
10:00AM 37.8652 62.7987 124° Southeast  Level Estimated
10:01AM 37.7855 62.9483 124° Southeast  Level Estimated
10:02AM 37.7056 63.0977 124° Southeast  Level Estimated
10:03AM 37.6256 63.2467 124° Southeast  Level Estimated
10:04AM 37.5453 63.3954 124° Southeast  Level Estimated
10:05AM 37.4648 63.5438 124° Southeast  Level Estimated
10:06AM 37.3842 63.6918 124° Southeast  Level Estimated
10:07AM 37.3034 63.8396 124° Southeast  Level Estimated
10:08AM 37.2224 63.9870 125° Southeast  Level Estimated
10:09AM 37.1412 64.1341 125° Southeast  Level Estimated
10:10AM 37.0598 64.2809 125° Southeast  Level Estimated
10:11AM 36.9782 64.4274 125° Southeast  Level Estimated
10:12AM 36.8965 64.5736 125° Southeast  Level Estimated
10:13AM 36.8146 64.7194 125° Southeast  Level Estimated
10:14AM 36.7325 64.8650 125° Southeast  Level Estimated
10:15AM 36.6502 65.0102 125° Southeast  Level Estimated
10:16AM 36.5678 65.1551 125° Southeast  Level Estimated
10:17AM 36.4852 65.2997 125° Southeast  Level Estimated
10:18AM 36.4024 65.4440 125° Southeast  Level Estimated
10:19AM 36.3194 65.5880 126° Southeast  Level Estimated
10:20AM 36.2363 65.7317 126° Southeast  Level Estimated
10:21AM 36.1530 65.8751 126° Southeast  Level Estimated
10:22AM 36.0695 66.0182 126° Southeast  Level Estimated
10:23AM 35.9859 66.1609 126° Southeast  Level Estimated
10:24AM 35.9020 66.3034 126° Southeast  Level Estimated
10:25AM 35.8181 66.4456 126° Southeast  Level Estimated
10:26AM 35.7339 66.5874 126° Southeast  Level Estimated
10:27AM 35.6496 66.7290 126° Southeast  Level Estimated
10:28AM 35.5651 66.8703 126° Southeast  Level Estimated
10:29AM 35.4804 67.0112 126° Southeast  Level Estimated
10:30AM 35.3956 67.1519 126° Southeast  Level Estimated
10:31AM 35.3107 67.2923 127° Southeast  Level Estimated
10:32AM 35.2255 67.4324 127° Southeast  Level Estimated
10:33AM 35.1402 67.5722 127° Southeast  Level Estimated
10:34AM 35.0548 67.7117 127° Southeast  Level Estimated
10:35AM 34.9692 67.8509 127° Southeast  Level Estimated
10:36AM 34.8834 67.9898 127° Southeast  Level Estimated
10:37AM 34.7975 68.1284 127° Southeast  Level Estimated
10:38AM 34.7114 68.2667 127° Southeast  Level Estimated
10:39AM 34.6251 68.4048 127° Southeast  Level Estimated
10:40AM 34.5387 68.5425 127° Southeast  Level Estimated
10:41AM 34.4522 68.6800 127° Southeast  Level Estimated
10:42AM 34.3655 68.8172 127° Southeast  Level Estimated
10:43AM 34.2786 68.9541 127° Southeast  Level Estimated
10:44AM 34.1916 69.0907 128° Southeast  Level Estimated
10:45AM 34.1044 69.2271 128° Southeast  Level Estimated
10:46AM 34.0171 69.3631 128° Southeast  Level Estimated
10:47AM 33.9296 69.4989 128° Southeast  Level Estimated
10:48AM 33.8420 69.6344 128° Southeast  Level Estimated
10:49AM 33.7543 69.7696 128° Southeast  Level Estimated
10:50AM 33.6664 69.9046 128° Southeast  Level Estimated
10:51AM 33.5783 70.0392 128° Southeast  Level Estimated
10:52AM 33.4901 70.1736 128° Southeast  Level Estimated
10:52AM 32.9470 69.3100 128° Southeast 487 560 39,000  Level FlightAware
10:52AM 32.8990 69.3860 127° Southeast 487 560 39,000  Level FlightAware
10:53AM 33.4018 70.3077 128° Southeast  Level Estimated
10:53AM 32.8440 69.4730 127° Southeast 487 560 39,000  Level FlightAware
10:54AM 32.7690 69.5820 129° Southeast 488 562 39,000  Level FlightAware
10:54AM 32.7310 69.6400 128° Southeast 489 563 39,000  Level FlightAware
10:55AM 32.6890 69.7030 128° Southeast 487 560 39,000  Level FlightAware
10:55AM 32.6360 69.7830 128° Southeast 485 558 39,000  Level FlightAware
10:56AM 32.5970 69.8430 128° Southeast 486 559 39,000  Level FlightAware
10:57AM 32.5240 69.9520 128° Southeast 489 563 39,000  Level FlightAware
10:57AM 32.4740 70.0280 128° Southeast 487 560 39,000  Level FlightAware
10:58AM 32.3740 70.1770 128° Southeast 489 563 39,000  Level FlightAware
10:59AM 32.3110 70.2730 128° Southeast 494 568 39,000  Level FlightAware
11:00AM 32.2540 70.3620 127° Southeast 493 567 39,000  Level FlightAware
11:01AM 32.1960 70.4520 127° Southeast 491 565 39,000  Level FlightAware
11:01AM 32.1370 70.5420 128° Southeast 493 567 39,000  Level FlightAware
11:02AM 32.0880 70.6180 127° Southeast 493 567 39,000  Level FlightAware
11:02AM 32.0420 70.6880 128° Southeast 496 571 39,000  Level FlightAware
11:03AM 31.9910 70.7660 128° Southeast 499 574 39,000  Level FlightAware
11:04AM 31.9440 70.8380 128° Southeast 499 574 39,000  Level FlightAware
11:04AM 31.9040 70.9070 124° Southeast 501 577 39,000  Level FlightAware
11:05AM 31.8610 70.9990 119° Southeast 506 582 39,000  Level FlightAware
11:05AM 31.8220 71.0870 118° Southeast 506 582 39,000  Level FlightAware
11:06AM 31.7710 71.2000 118° Southeast 501 577 39,000  Level FlightAware
11:07AM 31.7340 71.2810 118° Southeast 498 573 39,000  Level FlightAware
11:07AM 31.7000 71.3580 117° Southeast 497 572 39,000  Level FlightAware
11:08AM 31.6660 71.4330 118° Southeast 497 572 39,000  Level FlightAware
11:08AM 31.6280 71.5150 119° Southeast 497 572 39,000  Level FlightAware
11:09AM 31.5960 71.5870 118° Southeast 497 572 39,000  Level FlightAware
11:10AM 31.5530 71.6800 118° Southeast 498 573 39,000  Level FlightAware
11:10AM 31.5210 71.7510 118° Southeast 497 572 39,000  Level FlightAware
11:11AM 31.4870 71.8230 119° Southeast 497 572 39,000  Level FlightAware
11:11AM 31.4460 71.9120 118° Southeast 498 573 39,000  Level FlightAware
11:12AM 31.4020 72.0090 118° Southeast 497 572 39,000  Level FlightAware
11:12AM 31.3630 72.0940 118° Southeast 499 574 39,000  Level FlightAware
11:13AM 31.3330 72.1790 112° Southeast 505 581 39,000  Level FlightAware
11:13AM 31.3150 72.2520 106° East 509 586 39,000  Level FlightAware
11:14AM 31.2980 72.3660 100° East 514 592 39,000 180 Level FlightAware
11:15AM 31.2950 72.5210 91° East 517 595 39,300 420 Climbing FlightAware
11:16AM 31.3150 72.7050 83° East 521 600 39,900 540 Climbing FlightAware
11:17AM 31.3270 72.8010 82° East 516 594 40,200 480 Climbing FlightAware
11:17AM 31.3390 72.9100 83° East 515 593 40,500 480 Climbing FlightAware
11:18AM 31.3580 73.0740 82° East 514 592 41,000 300 Climbing FlightAware
11:19AM 31.3660 73.1790 85° East 517 595 41,000  Level FlightAware
11:20AM 31.3790 73.3310 84° East 518 596 41,000  Level FlightAware
11:20AM 31.3860 73.4100 84° East 519 597 41,000  Level FlightAware
11:21AM 31.3930 73.4870 84° East 520 598 41,000  Level FlightAware
11:22AM 31.4020 73.5980 85° East 520 598 41,000  Level FlightAware
11:22AM 31.4100 73.6940 84° East 520 598 41,000  Level FlightAware
11:23AM 31.4240 73.8220 83° East 521 600 41,000  Level FlightAware
11:24AM 31.4350 73.9340 83° East 520 598 41,000  Level FlightAware
11:25AM 31.4300 74.0940 92° East 513 590 41,000  Level FlightAware
11:25AM 31.4190 74.1710 99° East 510 587 41,000  Level FlightAware
11:26AM 31.3990 74.2670 104° East 512 589 41,000  Level FlightAware
11:26AM 31.3780 74.3700 103° East 511 588 41,000  Level FlightAware
11:27AM 31.3500 74.4630 109° East 506 582 41,000  Level FlightAware
11:28AM 31.3030 74.5690 117° Southeast 499 574 41,000  Level FlightAware
11:28AM 31.2610 74.6410 124° Southeast 493 567 41,000  Level FlightAware
11:29AM 31.1950 74.7280 132° Southeast 485 558 41,000  Level FlightAware
11:30AM 31.1240 74.8080 136° Southeast 485 558 41,000  Level FlightAware
11:30AM 31.0690 74.8700 136° Southeast 483 556 41,000  Level FlightAware
11:31AM 31.0010 74.9440 137° Southeast 481 554 41,000  Level FlightAware
11:32AM 30.9110 75.0420 137° Southeast 483 556 41,000  Level FlightAware
11:32AM 30.8430 75.1170 137° Southeast 484 557 41,000  Level FlightAware
11:33AM 30.7710 75.2140 131° Southeast 496 571 41,000  Level FlightAware
11:34AM 30.6860 75.3670 123° Southeast 502 578 41,000  Level FlightAware
11:35AM 30.6440 75.4400 124° Southeast 503 579 41,000  Level FlightAware
11:36AM 30.5880 75.5390 123° Southeast 503 579 41,000  Level FlightAware
11:36AM 30.5290 75.6400 124° Southeast 503 579 41,000  Level FlightAware
11:37AM 30.4550 75.7700 123° Southeast 500 575 41,000  Level FlightAware
11:38AM 30.4030 75.8610 124° Southeast 502 578 41,000  Level FlightAware
11:39AM 30.3260 75.9930 124° Southeast 501 577 41,000  Level FlightAware
11:40AM 30.2890 76.0560 124° Southeast 500 575 41,000  Level FlightAware
11:40AM 30.2480 76.1280 123° Southeast 500 575 41,000  Level FlightAware
11:41AM 30.2000 76.2110 124° Southeast 500 575 41,000  Level FlightAware
11:41AM 30.1500 76.2960 124° Southeast 500 575 41,000  Level FlightAware
11:42AM 30.1040 76.3760 124° Southeast 498 573 41,000  Level FlightAware
11:43AM 30.0500 76.4680 124° Southeast 498 573 41,000  Level FlightAware
11:43AM 30.0060 76.5430 124° Southeast 499 574 41,000  Level FlightAware
11:44AM 29.9480 76.6410 124° Southeast 501 577 41,000  Level FlightAware
11:44AM 29.9120 76.7020 124° Southeast 502 578 41,000  Level FlightAware
11:45AM 29.8650 76.7820 124° Southeast 502 578 41,000  Level FlightAware
11:46AM 29.7900 76.9080 124° Southeast 501 577 41,000  Level FlightAware
11:46AM 29.7530 76.9720 124° Southeast 503 579 41,000  Level FlightAware
11:47AM 29.7000 77.0610 124° Southeast 504 580 41,000  Level FlightAware
11:48AM 29.6500 77.1450 124° Southeast 505 581 41,000  Level FlightAware
11:48AM 29.6020 77.2250 125° Southeast 508 585 41,000  Level FlightAware
11:49AM 29.5610 77.2950 124° Southeast 509 586 41,000  Level FlightAware
11:50AM 29.4930 77.4080 125° Southeast 507 583 41,000  Level FlightAware
11:50AM 29.4480 77.4820 125° Southeast 505 581 41,000  Level FlightAware
11:51AM 29.3980 77.5650 125° Southeast 506 582 41,000  Level FlightAware
11:51AM 29.3560 77.6350 125° Southeast 507 583 41,000  Level FlightAware
11:52AM 29.3130 77.7070 124° Southeast 504 580 41,000  Level FlightAware
11:53AM 29.2680 77.7810 125° Southeast 502 578 41,000  Level FlightAware
11:53AM 29.2190 77.8630 124° Southeast 499 574 41,000  Level FlightAware
11:54AM 29.1710 77.9410 125° Southeast 498 573 41,000  Level FlightAware
11:55AM 29.1000 78.0570 125° Southeast 502 578 41,000  Level FlightAware
11:55AM 29.0560 78.1300 125° Southeast 504 580 41,000  Level FlightAware
11:56AM 29.0100 78.2060 125° Southeast 505 581 41,000  Level FlightAware
11:57AM 28.9510 78.3010 125° Southeast 504 580 41,000  Level FlightAware
11:58AM 28.8660 78.4400 125° Southeast 505 581 41,000  Level FlightAware
11:59AM 28.7930 78.5600 125° Southeast 504 580 41,000  Level FlightAware
11:59AM 28.7440 78.6390 125° Southeast 504 580 41,000  Level FlightAware
12:00PM 28.6750 78.7500 125° Southeast 503 579 41,000  Level FlightAware
12:00PM 28.6370 78.8120 125° Southeast 504 580 41,000  Level FlightAware
12:02PM 28.5520 78.9490 125° Southeast 503 579 41,000  Level FlightAware
12:02PM 28.4840 79.0580 125° Southeast 504 580 41,000  Level FlightAware
12:03PM 28.4610 79.0950 125° Southeast 504 580 41,000  Level FlightAware
12:04PM 28.4140 79.1700 125° Southeast 504 580 41,000  Level FlightAware
12:04PM 28.3720 79.2390 125° Southeast 504 580 41,000  Level FlightAware
12:05PM 28.3450 79.2830 125° Southeast 504 580 41,000  Level FlightAware
12:05PM 28.3030 79.3510 125° Southeast 504 580 41,000  Level FlightAware
12:06PM 28.2310 79.4670 125° Southeast 504 580 41,000  Level FlightAware
12:07PM 28.1890 79.5350 125° Southeast 504 580 41,000  Level FlightAware
12:08PM 28.1470 79.6040 125° Southeast 504 580 41,000  Level FlightAware
12:08PM 28.1200 79.6480 125° Southeast 504 580 41,000  Level FlightAware
12:09PM 28.0380 79.7800 125° Southeast 504 580 41,000  Level FlightAware
12:10PM 27.9710 79.8890 125° Southeast 504 580 41,000  Level FlightAware
12:11PM 27.9430 79.9330 126° Southeast 504 580 41,000  Level FlightAware
12:12PM 27.8580 80.0710 125° Southeast 504 580 41,000  Level FlightAware
12:13PM 27.8010 80.1620 125° Southeast 504 580 41,000  Level FlightAware
12:13PM 27.7900 80.1810 123° Southeast 504 580 41,000  Level FlightAware
12:16PM 27.5117 80.4928 135° Southeast  Level Estimated
12:17PM 27.4104 80.6058 135° Southeast  Level Estimated
12:18PM 27.3089 80.7186 135° Southeast  Level Estimated
12:19PM 27.2073 80.8312 135° Southeast  Level Estimated
12:20PM 27.1057 80.9436 135° Southeast  Level Estimated
12:21PM 27.0040 81.0558 135° Southeast  Level Estimated
12:22PM 26.9022 81.1678 136° Southeast  Level Estimated
12:23PM 26.8003 81.2796 136° Southeast  Level Estimated
12:24PM 26.6983 81.3911 136° Southeast  Level Estimated
12:25PM 26.5962 81.5025 136° Southeast  Level Estimated
12:26PM 26.4940 81.6137 136° Southeast  Level Estimated
12:27PM 26.3918 81.7247 136° Southeast  Level Estimated
12:28PM 26.2895 81.8355 136° Southeast  Level Estimated
12:29PM 26.1870 81.9461 136° Southeast  Level Estimated
12:30PM 26.0846 82.0564 136° Southeast  Level Estimated
12:31PM 25.9820 82.1666 136° Southeast  Level Estimated
12:32PM 25.8793 82.2766 136° Southeast  Level Estimated
12:33PM 25.7765 82.3865 136° Southeast  Level Estimated
12:34PM 25.6737 82.4961 136° Southeast  Level Estimated
12:35PM 25.5708 82.6055 136° Southeast  Level Estimated
12:36PM 25.4678 82.7148 136° Southeast  Level Estimated
12:37PM 25.3647 82.8239 136° Southeast  Level Estimated
12:38PM 25.2615 82.9327 136° Southeast  Level Estimated
12:39PM 25.1583 83.0414 136° Southeast  Level Estimated
12:40PM 25.0550 83.1499 136° Southeast  Level Estimated
12:41PM 24.9516 83.2582 136° Southeast  Level Estimated
12:42PM 24.8481 83.3664 137° Southeast  Level Estimated
12:42PM 25.1290 84.3360 137° Southeast 522 601 41,000  Level FlightAware
12:43PM 24.7446 83.4743 137° Southeast  Level Estimated
12:43PM 25.0910 84.3980 124° Southeast 522 601 41,000  Level FlightAware
12:44PM 25.0480 84.4680 124° Southeast 522 601 41,000  Level FlightAware
12:44PM 25.0120 84.5210 127° Southeast 522 601 41,000  Level FlightAware
12:45PM 24.9040 84.6910 125° Southeast 522 601 41,000  Level FlightAware
12:46PM 24.8580 84.7620 126° Southeast 522 601 41,000  Level FlightAware
12:46PM 24.8040 84.8470 125° Southeast 521 600 41,000  Level FlightAware
12:47PM 24.7660 84.9070 125° Southeast 521 600 41,000  Level FlightAware
12:47PM 24.7090 84.9960 125° Southeast 522 601 41,000  Level FlightAware
12:48PM 24.6450 85.1010 124° Southeast 522 601 41,000  Level FlightAware
12:49PM 24.5950 85.1830 124° Southeast 522 601 41,000  Level FlightAware
12:49PM 24.5470 85.2590 125° Southeast 521 600 41,000  Level FlightAware
12:50PM 24.5040 85.3300 124° Southeast 520 598 41,000  Level FlightAware
12:51PM 24.4530 85.4110 125° Southeast 518 596 41,000  Level FlightAware
12:51PM 24.4090 85.4820 124° Southeast 518 596 41,000  Level FlightAware
12:52PM 24.3650 85.5530 124° Southeast 519 597 41,000  Level FlightAware
12:52PM 24.3150 85.6340 124° Southeast 518 596 41,000  Level FlightAware
12:53PM 24.2610 85.7200 125° Southeast 518 596 41,000  Level FlightAware
12:54PM 24.2150 85.7940 124° Southeast 518 596 41,000  Level FlightAware
12:54PM 24.1410 85.9120 124° Southeast 517 595 41,000  Level FlightAware
12:55PM 24.0820 86.0050 125° Southeast 517 595 41,000  Level FlightAware
12:56PM 24.0380 86.0750 125° Southeast 517 595 41,000  Level FlightAware
12:56PM 23.9880 86.1550 124° Southeast 514 592 41,000  Level FlightAware
12:57PM 23.9440 86.2250 125° Southeast 512 589 41,000  Level FlightAware
12:57PM 23.9070 86.2830 125° Southeast 513 590 41,000  Level FlightAware
12:58PM 23.8600 86.3580 124° Southeast 513 590 41,000  Level FlightAware
12:59PM 23.7980 86.4570 124° Southeast 511 588 41,000  Level FlightAware
12:59PM 23.7590 86.5280 121° Southeast 504 580 41,000  Level FlightAware
01:00PM 23.7080 86.6260 120° Southeast 504 580 41,000  Level FlightAware
01:00PM 23.7290 86.5830 298° West 503 579 41,000  Level FlightAware
01:01PM 23.6120 86.7950 121° Southeast 501 577 41,000  Level FlightAware
01:03PM 23.5230 86.9550 121° Southeast 503 579 41,000  Level FlightAware
01:03PM 23.4760 87.0390 121° Southeast 503 579 41,000  Level FlightAware
01:04PM 23.4410 87.1000 122° Southeast 502 578 41,000  Level FlightAware
01:04PM 23.3970 87.1790 121° Southeast 498 573 41,000  Level FlightAware
01:05PM 23.3440 87.2740 121° Southeast 497 572 41,000  Level FlightAware
01:06PM 23.3030 87.3460 122° Southeast 497 572 41,000  Level FlightAware
01:07PM 23.2240 87.4860 122° Southeast 496 571 41,000  Level FlightAware
01:08PM 23.1500 87.6180 121° Southeast 495 570 41,000  Level FlightAware
01:08PM 23.1260 87.6590 122° Southeast 495 570 41,000  Level FlightAware
01:09PM 23.0740 87.7510 122° Southeast 495 570 41,000  Level FlightAware
01:09PM 23.0370 87.8170 121° Southeast 494 568 41,000  Level FlightAware
01:10PM 22.9640 87.9440 122° Southeast 493 567 41,000  Level FlightAware
01:11PM 22.9400 87.9860 122° Southeast 493 567 41,000  Level FlightAware
01:12PM 22.8520 88.1420 121° Southeast 493 567 41,000  Level FlightAware
01:12PM 22.8080 88.2170 122° Southeast 494 568 41,000  Level FlightAware
01:13PM 22.7740 88.2760 122° Southeast 501 577 41,000  Level FlightAware
01:14PM 22.7300 88.3540 121° Southeast 509 586 41,000  Level FlightAware
01:14PM 22.6890 88.4260 122° Southeast 511 588 41,000  Level FlightAware
01:15PM 22.6240 88.5260 125° Southeast 510 587 41,000  Level FlightAware
01:16PM 22.5690 88.6100 125° Southeast 511 588 41,000  Level FlightAware
01:17PM 22.4890 88.7320 125° Southeast 511 588 41,000  Level FlightAware
01:17PM 22.4330 88.8160 126° Southeast 511 588 41,000  Level FlightAware
01:18PM 22.3480 88.9440 126° Southeast 513 590 41,000  Level FlightAware
01:19PM 22.2740 89.0580 125° Southeast 514 592 41,000  Level FlightAware
01:20PM 22.2200 89.1470 123° Southeast 513 590 41,000  Level FlightAware
01:21PM 22.1560 89.2500 124° Southeast 513 590 41,000  Level FlightAware
01:21PM 22.1040 89.3360 123° Southeast 511 588 41,000  Level FlightAware
01:22PM 22.0490 89.4240 124° Southeast 511 588 41,000  Level FlightAware
01:23PM 22.0030 89.4980 124° Southeast 510 587 41,000  Level FlightAware
01:23PM 21.9590 89.5700 123° Southeast 509 586 41,000  Level FlightAware
01:24PM 21.9250 89.6250 124° Southeast 509 586 41,000  Level FlightAware
01:24PM 21.8670 89.7170 124° Southeast 508 585 41,000  Level FlightAware
01:25PM 21.8140 89.8020 124° Southeast 508 585 41,000  Level FlightAware
01:26PM 21.7700 89.8730 124° Southeast 507 583 41,000  Level FlightAware
01:27PM 21.6890 90.0020 124° Southeast 506 582 41,000  Level FlightAware
01:27PM 21.6350 90.0870 124° Southeast 505 581 41,000  Level FlightAware
01:28PM 21.5900 90.1600 124° Southeast 505 581 41,000  Level FlightAware
01:28PM 21.5480 90.2260 124° Southeast 505 581 41,000  Level FlightAware
01:29PM 21.5060 90.2940 124° Southeast 505 581 41,000  Level FlightAware
01:29PM 21.4580 90.3690 125° Southeast 505 581 41,000  Level FlightAware
01:30PM 21.4130 90.4410 124° Southeast 505 581 41,000  Level FlightAware
01:31PM 21.3600 90.5250 124° Southeast 505 581 41,000  Level FlightAware
01:31PM 21.3180 90.5910 124° Southeast 504 580 41,000  Level FlightAware
01:32PM 21.2810 90.6490 124° Southeast 505 581 41,000  Level FlightAware
01:32PM 21.2250 90.7380 124° Southeast 506 582 41,000  Level FlightAware
01:33PM 21.1720 90.8210 124° Southeast 507 583 41,000  Level FlightAware
01:34PM 21.1410 90.8700 124° Southeast 507 583 41,000  Level FlightAware
01:35PM 21.0720 90.9800 124° Southeast 507 583 41,000  Level FlightAware
01:35PM 21.0290 91.0480 124° Southeast 507 583 41,000  Level FlightAware
01:36PM 20.9910 91.1080 124° Southeast 507 583 41,000  Level FlightAware
01:36PM 20.9510 91.1710 124° Southeast 507 583 41,000  Level FlightAware
01:37PM 20.9100 91.2370 124° Southeast 507 583 41,000  Level FlightAware
01:38PM 20.8700 91.3010 124° Southeast 507 583 41,000  Level FlightAware
01:39PM 20.8030 91.4070 124° Southeast 507 583 41,000  Level FlightAware
01:39PM 20.7620 91.4720 124° Southeast 507 583 41,000  Level FlightAware
01:40PM 20.7240 91.5320 124° Southeast 507 583 41,000  Level FlightAware
01:40PM 20.6840 91.5960 124° Southeast 507 583 41,000  Level FlightAware
01:41PM 20.6160 91.7040 124° Southeast 507 583 41,000  Level FlightAware
01:42PM 20.5890 91.7460 124° Southeast 507 583 41,000  Level FlightAware
01:43PM 20.5080 91.8750 124° Southeast 507 583 41,000  Level FlightAware
01:43PM 20.4800 91.9190 124° Southeast 507 583 41,000  Level FlightAware
01:46PM 20.2313 92.0922 147° Southeast  Level Estimated
01:47PM 20.1118 92.1751 147° Southeast  Level Estimated
01:48PM 19.9923 92.2579 147° Southeast  Level Estimated
01:49PM 19.8727 92.3406 147° Southeast  Level Estimated
01:50PM 19.7532 92.4231 147° Southeast  Level Estimated
01:51PM 19.6336 92.5055 147° Southeast  Level Estimated
01:52PM 19.5139 92.5878 147° Southeast  Level Estimated
01:53PM 19.3942 92.6700 147° Southeast  Level Estimated
01:54PM 19.2745 92.7521 147° Southeast  Level Estimated
01:55PM 19.1548 92.8340 147° Southeast  Level Estimated
01:56PM 19.0350 92.9158 147° Southeast  Level Estimated
01:57PM 18.9151 92.9975 147° Southeast  Level Estimated
01:58PM 18.7952 93.0791 147° Southeast  Level Estimated
01:59PM 18.6754 93.1606 147° Southeast  Level Estimated
02:00PM 18.5554 93.2419 147° Southeast  Level Estimated
02:01PM 18.4354 93.3232 147° Southeast  Level Estimated
02:02PM 18.3154 93.4043 147° Southeast  Level Estimated
02:03PM 18.1954 93.4853 147° Southeast  Level Estimated
02:04PM 18.0753 93.5662 147° Southeast  Level Estimated
02:05PM 17.9552 93.6470 147° Southeast  Level Estimated
02:06PM 17.8351 93.7277 147° Southeast  Level Estimated
02:07PM 17.7149 93.8082 147° Southeast  Level Estimated
02:08PM 17.5947 93.8887 147° Southeast  Level Estimated
02:09PM 17.4744 93.9690 147° Southeast  Level Estimated
02:10PM 17.3542 94.0493 148° Southeast  Level Estimated
02:11PM 17.2339 94.1294 148° Southeast  Level Estimated
02:12PM 17.1135 94.2095 148° Southeast  Level Estimated
02:13PM 16.9931 94.2894 148° Southeast  Level Estimated
02:14PM 16.8727 94.3692 148° Southeast  Level Estimated
02:15PM 16.7523 94.4490 148° Southeast  Level Estimated
02:16PM 16.6318 94.5286 148° Southeast  Level Estimated
02:17PM 16.5114 94.6081 148° Southeast  Level Estimated
02:18PM 16.3908 94.6876 148° Southeast  Level Estimated
02:19PM 16.2703 94.7669 148° Southeast  Level Estimated
02:20PM 16.1497 94.8461 148° Southeast  Level Estimated
02:21PM 16.0291 94.9253 148° Southeast  Level Estimated
02:22PM 15.9085 95.0043 148° Southeast  Level Estimated
02:23PM 15.7878 95.0833 148° Southeast  Level Estimated
02:24PM 15.6671 95.1621 148° Southeast  Level Estimated
02:25PM 15.5464 95.2409 148° Southeast  Level Estimated
02:26PM 15.4256 95.3196 148° Southeast  Level Estimated
02:27PM 15.3048 95.3981 148° Southeast  Level Estimated
02:28PM 15.1840 95.4766 148° Southeast  Level Estimated
02:29PM 15.0632 95.5550 148° Southeast  Level Estimated
02:30PM 14.9423 95.6333 148° Southeast  Level Estimated
02:31PM 14.8215 95.7116 148° Southeast  Level Estimated
02:32PM 14.7005 95.7897 148° Southeast  Level Estimated
02:33PM 14.5796 95.8677 148° Southeast  Level Estimated
02:34PM 14.4586 95.9457 148° Southeast  Level Estimated
02:35PM 14.3376 96.0236 148° Southeast  Level Estimated
02:36PM 14.2166 96.1014 148° Southeast  Level Estimated
02:37PM 14.0956 96.1791 148° Southeast  Level Estimated
02:38PM 13.9745 96.2567 148° Southeast  Level Estimated
02:39PM 13.8534 96.3343 148° Southeast  Level Estimated
02:40PM 13.7323 96.4117 148° Southeast  Level Estimated
02:41PM 13.6112 96.4891 148° Southeast  Level Estimated
02:42PM 13.4900 96.5664 148° Southeast  Level Estimated
02:43PM 13.3688 96.6436 148° Southeast  Level Estimated
02:44PM 13.2476 96.7208 148° Southeast  Level Estimated
02:45PM 13.1264 96.7979 148° Southeast  Level Estimated
02:46PM 13.0051 96.8749 148° Southeast  Level Estimated
02:47PM 12.8838 96.9518 148° Southeast  Level Estimated
02:48PM 12.7625 97.0286 148° Southeast  Level Estimated
02:48PM 14.3980 98.0500 148° Southeast 455 524 41,000  Level FlightAware
02:49PM 12.6412 97.1054 148° Southeast  Level Estimated
02:49PM 14.3470 98.0770 153° Southeast 455 524 41,000  Level FlightAware
02:49PM 14.2730 98.1160 153° Southeast 457 526 41,000  Level FlightAware
02:50PM 14.1650 98.1740 152° Southeast 453 521 41,000  Level FlightAware
02:51PM 14.0690 98.2240 153° Southeast 453 521 41,000  Level FlightAware
02:52PM 14.0170 98.2520 152° Southeast 453 521 41,000  Level FlightAware
02:53PM 13.9030 98.3110 153° Southeast 453 521 41,000  Level FlightAware
02:53PM 13.8180 98.3560 153° Southeast 454 522 41,000  Level FlightAware
02:54PM 13.7720 98.3790 154° Southeast 455 524 41,000  Level FlightAware
02:54PM 13.7000 98.4170 153° Southeast 454 522 41,000  Level FlightAware
02:55PM 13.6380 98.4490 153° Southeast 452 520 41,000  Level FlightAware
02:56PM 13.5710 98.4840 153° Southeast 452 520 41,000  Level FlightAware
02:56PM 13.5180 98.5120 153° Southeast 452 520 41,000  Level FlightAware
02:57PM 13.4210 98.5630 153° Southeast 452 520 41,000  Level FlightAware
02:58PM 13.3320 98.6100 153° Southeast 450 518 41,000  Level FlightAware
02:59PM 13.2340 98.6620 153° Southeast 453 521 41,000  Level FlightAware
02:59PM 13.1760 98.6930 153° Southeast 452 520 41,000  Level FlightAware
03:00PM 13.0670 98.7500 153° Southeast 451 519 41,000  Level FlightAware
03:01PM 12.9430 98.8160 153° Southeast 454 522 41,000  Level FlightAware
03:02PM 12.8740 98.8520 153° Southeast 453 521 41,000  Level FlightAware
03:02PM 12.8290 98.8760 153° Southeast 452 520 41,000  Level FlightAware
03:03PM 12.7770 98.9040 152° Southeast 452 520 41,000  Level FlightAware
03:03PM 12.7010 98.9430 153° Southeast 452 520 41,000  Level FlightAware
03:04PM 12.6270 98.9830 152° Southeast 452 520 41,000  Level FlightAware
03:05PM 12.5130 99.0430 153° Southeast 450 518 41,000  Level FlightAware
03:06PM 12.4030 99.1000 153° Southeast 449 517 41,000  Level FlightAware
03:07PM 12.2960 99.1570 153° Southeast 449 517 41,000  Level FlightAware
03:08PM 12.1780 99.2190 153° Southeast 449 517 41,000  Level FlightAware
03:09PM 12.1040 99.2570 153° Southeast 449 517 41,000  Level FlightAware
03:09PM 12.0440 99.2890 152° Southeast 448 516 41,000  Level FlightAware
03:10PM 11.9260 99.3510 153° Southeast 447 514 41,000  Level FlightAware
03:11PM 11.8140 99.4090 153° Southeast 447 514 41,000  Level FlightAware
03:12PM 11.7520 99.4420 152° Southeast 447 514 41,000  Level FlightAware
03:13PM 11.6860 99.4760 153° Southeast 448 516 41,000  Level FlightAware
03:14PM 11.5710 99.5360 153° Southeast 448 516 41,000  Level FlightAware
03:15PM 11.4530 99.5980 153° Southeast 446 513 41,000  Level FlightAware
03:15PM 11.3960 99.6270 153° Southeast 445 512 41,000  Level FlightAware
03:16PM 11.3220 99.6660 153° Southeast 445 512 41,000  Level FlightAware
03:16PM 11.2540 99.7020 153° Southeast 446 513 41,000  Level FlightAware
03:17PM 11.1880 99.7360 153° Southeast 447 514 41,000  Level FlightAware
03:18PM 11.0980 99.7830 153° Southeast 447 514 41,000  Level FlightAware
03:18PM 11.0360 99.8150 153° Southeast 449 517 41,000  Level FlightAware
03:19PM 10.9620 99.8540 153° Southeast 445 512 41,000  Level FlightAware
03:20PM 10.8670 99.9040 153° Southeast 443 510 41,000  Level FlightAware
03:21PM 10.7970 99.9400 153° Southeast 443 510 41,000  Level FlightAware
03:21PM 10.7280 99.9760 153° Southeast 443 510 41,000  Level FlightAware
03:22PM 10.6460 100.0180 153° Southeast 445 512 41,000  Level FlightAware
03:23PM 10.5910 100.0470 153° Southeast 446 513 41,000  Level FlightAware
03:23PM 10.5150 100.0870 153° Southeast 446 513 41,000  Level FlightAware
03:24PM 10.4250 100.1330 153° Southeast 450 518 41,000  Level FlightAware
03:25PM 10.3060 100.1950 153° Southeast 452 520 41,000  Level FlightAware
03:26PM 10.2000 100.2500 153° Southeast 451 519 41,000  Level FlightAware
03:27PM 10.1260 100.2880 153° Southeast 445 512 41,000  Level FlightAware
03:28PM 10.0130 100.3460 153° Southeast 439 505 41,000  Level FlightAware
03:28PM 9.9320 100.3880 153° Southeast 439 505 41,000  Level FlightAware
03:29PM 9.8160 100.4480 153° Southeast 438 504 41,000  Level FlightAware
03:30PM 9.7480 100.4840 152° Southeast 438 504 41,000  Level FlightAware
03:31PM 9.6640 100.5270 153° Southeast 441 507 41,000  Level FlightAware
03:31PM 9.6080 100.5550 154° Southeast 443 510 41,000  Level FlightAware
03:32PM 9.5520 100.5840 153° Southeast 450 518 41,000  Level FlightAware
03:32PM 9.4930 100.6150 153° Southeast 448 516 41,000  Level FlightAware
03:33PM 9.4190 100.6530 153° Southeast 447 514 41,000  Level FlightAware
03:33PM 9.3750 100.6760 153° Southeast 448 516 41,000  Level FlightAware
03:34PM 9.3090 100.7100 153° Southeast 449 517 41,000  Level FlightAware
03:35PM 9.2420 100.7440 153° Southeast 451 519 41,000  Level FlightAware
03:35PM 9.1670 100.7830 153° Southeast 448 516 41,000  Level FlightAware
03:36PM 9.1000 100.8170 153° Southeast 443 510 41,000  Level FlightAware
03:37PM 8.9810 100.8780 153° Southeast 438 504 41,000  Level FlightAware
03:37PM 8.9440 100.8970 153° Southeast 435 501 41,000  Level FlightAware
03:39PM 8.7910 100.9760 153° Southeast 436 502 41,000  Level FlightAware
03:39PM 8.7360 101.0040 153° Southeast 436 502 41,000  Level FlightAware
03:40PM 8.6310 101.0580 153° Southeast 442 509 41,000  Level FlightAware
03:41PM 8.5130 101.1180 153° Southeast 441 507 41,000  Level FlightAware
03:42PM 8.4550 101.1480 153° Southeast 443 510 41,000  Level FlightAware
03:42PM 8.4120 101.1700 153° Southeast 444 511 41,000  Level FlightAware
03:43PM 8.3260 101.2140 153° Southeast 444 511 41,000  Level FlightAware
03:44PM 8.2060 101.2760 153° Southeast 440 506 41,000  Level FlightAware
03:45PM 8.1390 101.3100 153° Southeast 440 506 41,000  Level FlightAware
03:46PM 8.0210 101.3700 153° Southeast 441 507 41,000  Level FlightAware
03:46PM 7.9650 101.3990 153° Southeast 442 509 41,000  Level FlightAware
03:47PM 7.8830 101.4400 154° Southeast 448 516 41,000  Level FlightAware
03:48PM 7.8220 101.4720 153° Southeast 453 521 41,000  Level FlightAware
03:48PM 7.7540 101.5060 154° Southeast 457 526 41,000  Level FlightAware
03:49PM 7.6350 101.5670 153° Southeast 464 534 41,000  Level FlightAware
03:50PM 7.6010 101.5840 154° Southeast 462 532 41,000  Level FlightAware
03:50PM 7.5160 101.6280 153° Southeast 461 531 41,000  Level FlightAware
03:51PM 7.4560 101.6580 154° Southeast 461 531 41,000  Level FlightAware
03:52PM 7.3980 101.6880 153° Southeast 461 531 41,000  Level FlightAware
03:52PM 7.3590 101.7080 153° Southeast 461 531 41,000  Level FlightAware
03:53PM 7.2450 101.7650 154° Southeast 453 521 41,000  Level FlightAware
03:54PM 7.1360 101.8210 153° Southeast 450 518 41,000  Level FlightAware
03:54PM 7.0590 101.8600 153° Southeast 454 522 41,000  Level FlightAware
03:55PM 6.9920 101.8940 153° Southeast 454 522 41,000  Level FlightAware
03:55PM 6.9350 101.9230 153° Southeast 455 524 41,000  Level FlightAware
03:56PM 6.8600 101.9610 153° Southeast 456 525 41,000  Level FlightAware
03:57PM 6.7770 102.0030 153° Southeast 450 518 41,000  Level FlightAware
03:58PM 6.6580 102.0630 153° Southeast 448 516 41,000  Level FlightAware
03:58PM 6.6000 102.0930 153° Southeast 453 521 41,000  Level FlightAware
03:59PM 6.5230 102.1320 153° Southeast 455 524 41,000  Level FlightAware
04:00PM 6.4640 102.1620 153° Southeast 454 522 41,000  Level FlightAware
04:00PM 6.4160 102.1860 154° Southeast 453 521 41,000  Level FlightAware
04:01PM 6.2820 102.2540 153° Southeast 453 521 41,000  Level FlightAware
04:02PM 6.2290 102.2810 153° Southeast 451 519 41,000  Level FlightAware
04:02PM 6.1450 102.3220 154° Southeast 453 521 41,000  Level FlightAware
04:03PM 6.0810 102.3470 159° South 454 522 41,000  Level FlightAware
04:04PM 5.9680 102.3920 158° South 454 522 41,000  Level FlightAware
04:05PM 5.9020 102.4190 158° South 454 522 41,000  Level FlightAware
04:05PM 5.8420 102.4430 158° South 452 520 41,000  Level FlightAware
04:06PM 5.7018 102.4989 158° South 445 512 41,000  Level FlightAware ADS-B (WMSA / SZB)
04:07PM 5.6060 102.5370 158° South 448 516 41,000  Level FlightAware
04:08PM 5.4840 102.5860 158° South 449 517 41,000  Level FlightAware
04:09PM 5.4250 102.6100 158° South 448 516 41,000  Level FlightAware
04:09PM 5.3670 102.6330 158° South 450 518 41,000  Level FlightAware
04:10PM 5.2260 102.6890 158° South 454 522 41,000  Level FlightAware
04:11PM 5.2010 102.6990 158° South 455 524 41,000  Level FlightAware
04:11PM 5.1190 102.7320 158° South 453 521 41,000  Level FlightAware
04:12PM 5.0530 102.7580 159° South 449 517 41,000  Level FlightAware
04:13PM 4.9710 102.7910 158° South 449 517 41,000  Level FlightAware
04:13PM 4.9070 102.8160 159° South 449 517 41,000  Level FlightAware
04:14PM 4.8486 102.8398 158° South 449 517 41,000  Level FlightAware ADS-B (WMSA / SZB)
04:14PM 4.7875 102.8642 158° South 449 517 41,000  Level FlightAware ADS-B (WMSA / SZB)
04:15PM 4.6760 102.9090 158° South 448 516 41,000  Level FlightAware
04:15PM 4.6290 102.9270 159° South 449 517 41,000  Level FlightAware
04:16PM 4.5410 102.9620 158° South 449 517 41,000  Level FlightAware
04:17PM 4.4631 102.9936 158° South 449 517 41,000  Level FlightAware ADS-B (WMSA / SZB)
04:17PM 4.4043 103.0170 158° South 449 517 41,000  Level FlightAware ADS-B (WMSA / SZB)
04:18PM 4.3230 103.0493 158° South 449 517 41,000  Level FlightAware ADS-B (WMSA / SZB)
04:19PM 4.2164 103.0918 158° South 449 517 41,000  Level FlightAware ADS-B (WMSA / SZB)
04:20PM 4.1423 103.1213 158° South 447 514 41,000  Level FlightAware ADS-B (WMSA / SZB)
04:21PM 4.0207 103.1697 158° South 451 519 41,000  Level FlightAware ADS-B (WMSA / SZB)
04:21PM 3.9473 103.1989 158° South 453 521 41,000  Level FlightAware ADS-B (WMSA / SZB)
04:22PM 3.8875 103.2227 158° South 453 521 41,000  Level FlightAware ADS-B (WMSA / SZB)
04:23PM 3.8084 103.2542 158° South 456 525 41,000  Level FlightAware ADS-B (WMSA / SZB)
04:23PM 3.7277 103.2863 158° South 457 526 41,000 -360 Level FlightAware ADS-B (WMSA / SZB)
04:24PM 3.6690 103.3096 158° South 456 525 40,600 -900 Descending FlightAware ADS-B (WMSA / SZB)
04:24PM 3.6027 103.3360 158° South 456 525 40,100 -960 Descending FlightAware ADS-B (WMSA / SZB)
04:25PM 3.5434 103.3596 158° South 456 525 39,600 -1,080 Descending FlightAware ADS-B (WMSA / SZB)
04:25PM 3.4685 103.3905 158° South 459 528 38,900 -1,680 Descending FlightAware ADS-B (WMSA / SZB)
04:26PM 3.4084 103.4205 154° Southeast 460 529 37,700 -2,760 Descending FlightAware ADS-B (WMSA / SZB)
04:27PM 3.3327 103.4582 154° Southeast 462 532 35,700 -2,940 Descending FlightAware ADS-B (WMSA / SZB)
04:27PM 3.2340 103.5060 154° Southeast 464 534 33,300 -2,580 Descending FlightAware
04:28PM 3.1700 103.5360 155° Southeast 454 522 32,000 -1,740 Descending FlightAware
04:29PM 3.0830 103.5780 154° Southeast 446 513 30,500 -1,560 Descending FlightAware
04:30PM 3.0360 103.6010 154° Southeast 444 511 29,600 -2,220 Descending FlightAware
04:31PM 2.9080 103.6620 155° Southeast 455 524 27,200 -2,340 Descending FlightAware
04:31PM 2.8490 103.6910 154° Southeast 450 518 26,100 -2,040 Descending FlightAware
04:32PM 2.7930 103.7180 154° Southeast 444 511 25,000 -660 Descending FlightAware
04:33PM 2.6770 103.7750 154° Southeast 444 511 25,000 -2,760 Level FlightAware
04:33PM 2.5630 103.8280 155° Southeast 427 491 20,200 -4,740 Descending FlightAware
04:34PM 2.4570 103.8800 154° Southeast 416 479 17,800 -2,400 Descending FlightAware
04:35PM 2.3980 103.9080 155° Southeast 408 470 16,400 -2,580 Descending FlightAware
04:36PM 2.2910 103.9600 154° Southeast 400 460 13,700 -2,580 Descending FlightAware
04:37PM 2.2320 103.9880 155° Southeast 396 456 12,200 -2,100 Descending FlightAware
04:38PM 2.1460 104.0290 155° Southeast 376 433 10,600 -1,440 Descending FlightAware
04:38PM 2.0840 104.0590 154° Southeast 342 394 10,000 -1,140 Descending FlightAware
04:39PM 2.0510 104.0750 154° Southeast 335 386 9,400 -1,500 Descending FlightAware
04:39PM 2.0170 104.0910 155° Southeast 327 376 8,800 -2,040 Descending FlightAware
04:39PM 1.9810 104.1050 159° South 326 375 7,700 -2,700 Descending FlightAware
04:40PM 1.9680 104.1050 180° South 326 375 7,300 -1,980 Descending FlightAware
04:40PM 1.8960 104.1060 179° South 320 368 5,900 -1,440 Descending FlightAware
04:41PM 1.8670 104.1110 170° South 307 353 5,700 -480 Descending FlightAware
04:41PM 1.8250 104.1200 168° South 284 327 5,500 -480 Descending FlightAware
04:42PM 1.7950 104.1260 169° South 268 308 5,300 -480 Descending FlightAware
04:42PM 1.7640 104.1330 167° South 252 290 5,100 -480 Descending FlightAware
04:43PM 1.7330 104.1380 171° South 234 269 4,900 -600 Descending FlightAware
04:43PM 1.7010 104.1260 201° Southwest 212 244 4,500 -720 Descending FlightAware
04:44PM 1.6710 104.1130 203° Southwest 216 249 4,100 -540 Descending FlightAware
04:44PM 1.6490 104.1040 202° Southwest 206 237 4,000 -540 Descending FlightAware
04:45PM 1.6180 104.0910 203° Southwest 194 223 3,600 -720 Descending FlightAware
04:45PM 1.5950 104.0810 203° Southwest 215 247 3,300 -540 Descending FlightAware
04:46PM 1.5640 104.0680 203° Southwest 214 246 3,100 -480 Descending FlightAware
04:46PM 1.5370 104.0570 202° Southwest 195 224 2,800 -480 Descending FlightAware
04:47PM 1.5160 104.0480 203° Southwest 192 221 2,700 -240 Descending FlightAware
04:47PM 1.4920 104.0380 203° Southwest 192 221 2,600 -480 Descending FlightAware
04:48PM 1.4730 104.0300 203° Southwest 192 221 2,300 -960 Descending FlightAware
04:48PM 1.4510 104.0210 202° Southwest 192 221 1,800 -1,200 Descending FlightAware
04:48PM 1.4270 104.0110 203° Southwest 176 203 1,200 -1,020 Descending FlightAware
04:49PM 1.4020 104.0000 204° Southwest 152 175 700 -780 Descending FlightAware
04:50PM 1.3800 103.9910 202° Southwest 138 159 300 -720 Descending FlightAware
04:50PM 1.3750 103.9880 211° Southwest 142 163 200 -780 Descending FlightAware
04:50PM 1.3600 103.9820 202° Southwest 72 83 -420 Descending FlightAware
04:51PM 1.3520 103.9790 201° Southwest 72 83  Level FlightAware
04:51PM 1.3600 103.9820 21° North 72 83  Level FlightAware
04:52PM 1.3530 103.9790 203° Southwest 72 83  Level FlightAware